<?xml version='1.0' encoding='UTF-8'?>
<gpx version="1.1" creator="https://www.komoot.de" xmlns="http://www.topografix.com/GPX/1/1" xmlns:xsi="http://www.w3.org/2001/XMLSchema-instance" xsi:schemaLocation="http://www.topografix.com/GPX/1/1 http://www.topografix.com/GPX/1/1/gpx.xsd">
  <metadata>
    <name>Highspeed 49km-2026-7-Samstag</name>
    <author>
      <link href="https://www.komoot.de">
        <text>komoot</text>
        <type>text/html</type>
      </link>
    </author>
  </metadata>
  <trk>
    <name>Highspeed 49km-2026-7-Samstag</name>
    <trkseg>
      <trkpt lat="52.028046" lon="8.916318">
        <ele>104.155616</ele>
        <time>2025-09-29T15:57:41.177Z</time>
      </trkpt>
      <trkpt lat="52.027993" lon="8.916320">
        <ele>104.155616</ele>
        <time>2025-09-29T15:57:42.288Z</time>
      </trkpt>
      <trkpt lat="52.027605" lon="8.916333">
        <ele>104.155616</ele>
        <time>2025-09-29T15:57:50.495Z</time>
      </trkpt>
      <trkpt lat="52.026186" lon="8.916378">
        <ele>103.675884</ele>
        <time>2025-09-29T15:58:19.713Z</time>
      </trkpt>
      <trkpt lat="52.026167" lon="8.916379">
        <ele>103.666395</ele>
        <time>2025-09-29T15:58:20.098Z</time>
      </trkpt>
      <trkpt lat="52.026141" lon="8.916139">
        <ele>103.591546</ele>
        <time>2025-09-29T15:58:23.124Z</time>
      </trkpt>
      <trkpt lat="52.026119" lon="8.915761">
        <ele>103.474927</ele>
        <time>2025-09-29T15:58:27.792Z</time>
      </trkpt>
      <trkpt lat="52.026117" lon="8.915362">
        <ele>103.352372</ele>
        <time>2025-09-29T15:58:32.637Z</time>
      </trkpt>
      <trkpt lat="52.026139" lon="8.914710">
        <ele>103.008337</ele>
        <time>2025-09-29T15:58:40.331Z</time>
      </trkpt>
      <trkpt lat="52.026284" lon="8.913298">
        <ele>101.973296</ele>
        <time>2025-09-29T15:58:57.223Z</time>
      </trkpt>
      <trkpt lat="52.026288" lon="8.913190">
        <ele>101.895068</ele>
        <time>2025-09-29T15:58:58.466Z</time>
      </trkpt>
      <trkpt lat="52.026239" lon="8.912745">
        <ele>101.568208</ele>
        <time>2025-09-29T15:59:03.669Z</time>
      </trkpt>
      <trkpt lat="52.026204" lon="8.912584">
        <ele>101.444748</ele>
        <time>2025-09-29T15:59:05.646Z</time>
      </trkpt>
      <trkpt lat="52.026159" lon="8.912418">
        <ele>101.313592</ele>
        <time>2025-09-29T15:59:07.731Z</time>
      </trkpt>
      <trkpt lat="52.026083" lon="8.912097">
        <ele>101.052445</ele>
        <time>2025-09-29T15:59:11.714Z</time>
      </trkpt>
      <trkpt lat="52.026055" lon="8.911980">
        <ele>100.947411</ele>
        <time>2025-09-29T15:59:13.154Z</time>
      </trkpt>
      <trkpt lat="52.026014" lon="8.911806">
        <ele>100.791520</ele>
        <time>2025-09-29T15:59:15.304Z</time>
      </trkpt>
      <trkpt lat="52.025984" lon="8.911688">
        <ele>100.684697</ele>
        <time>2025-09-29T15:59:16.796Z</time>
      </trkpt>
      <trkpt lat="52.025943" lon="8.911532">
        <ele>100.542768</ele>
        <time>2025-09-29T15:59:18.762Z</time>
      </trkpt>
      <trkpt lat="52.025889" lon="8.911328">
        <ele>100.356962</ele>
        <time>2025-09-29T15:59:21.319Z</time>
      </trkpt>
      <trkpt lat="52.025817" lon="8.911032">
        <ele>100.090656</ele>
        <time>2025-09-29T15:59:24.980Z</time>
      </trkpt>
      <trkpt lat="52.025797" lon="8.910952">
        <ele>100.018408</ele>
        <time>2025-09-29T15:59:25.967Z</time>
      </trkpt>
      <trkpt lat="52.025789" lon="8.910919">
        <ele>99.988732</ele>
        <time>2025-09-29T15:59:26.363Z</time>
      </trkpt>
      <trkpt lat="52.025537" lon="8.909906">
        <ele>99.074528</ele>
        <time>2025-09-29T15:59:38.734Z</time>
      </trkpt>
      <trkpt lat="52.025464" lon="8.909405">
        <ele>98.675718</ele>
        <time>2025-09-29T15:59:44.740Z</time>
      </trkpt>
      <trkpt lat="52.025326" lon="8.908456">
        <ele>98.336455</ele>
        <time>2025-09-29T15:59:56.152Z</time>
      </trkpt>
      <trkpt lat="52.025285" lon="8.908142">
        <ele>98.224778</ele>
        <time>2025-09-29T16:00:00.169Z</time>
      </trkpt>
      <trkpt lat="52.025279" lon="8.908095">
        <ele>98.208078</ele>
        <time>2025-09-29T16:00:00.780Z</time>
      </trkpt>
      <trkpt lat="52.025251" lon="8.907874">
        <ele>98.129576</ele>
        <time>2025-09-29T16:00:03.666Z</time>
      </trkpt>
      <trkpt lat="52.025203" lon="8.907453">
        <ele>97.980612</ele>
        <time>2025-09-29T16:00:09.302Z</time>
      </trkpt>
      <trkpt lat="52.025188" lon="8.907045">
        <ele>97.838410</ele>
        <time>2025-09-29T16:00:14.834Z</time>
      </trkpt>
      <trkpt lat="52.025135" lon="8.907017">
        <ele>97.806899</ele>
        <time>2025-09-29T16:00:16.352Z</time>
      </trkpt>
      <trkpt lat="52.024396" lon="8.906385">
        <ele>97.916552</ele>
        <time>2025-09-29T16:00:34.600Z</time>
      </trkpt>
      <trkpt lat="52.024340" lon="8.906308">
        <ele>97.944671</ele>
        <time>2025-09-29T16:00:36.203Z</time>
      </trkpt>
      <trkpt lat="52.024136" lon="8.906030">
        <ele>98.046724</ele>
        <time>2025-09-29T16:00:42.066Z</time>
      </trkpt>
      <trkpt lat="52.023984" lon="8.905573">
        <ele>98.169258</ele>
        <time>2025-09-29T16:00:49.069Z</time>
      </trkpt>
      <trkpt lat="52.023846" lon="8.904631">
        <ele>98.395389</ele>
        <time>2025-09-29T16:01:01.841Z</time>
      </trkpt>
      <trkpt lat="52.023851" lon="8.904259">
        <ele>98.475685</ele>
        <time>2025-09-29T16:01:06.736Z</time>
      </trkpt>
      <trkpt lat="52.023872" lon="8.904100">
        <ele>98.510779</ele>
        <time>2025-09-29T16:01:08.884Z</time>
      </trkpt>
      <trkpt lat="52.023892" lon="8.904000">
        <ele>98.533470</ele>
        <time>2025-09-29T16:01:10.269Z</time>
      </trkpt>
      <trkpt lat="52.023946" lon="8.903493">
        <ele>98.644507</ele>
        <time>2025-09-29T16:01:17.165Z</time>
      </trkpt>
      <trkpt lat="52.023918" lon="8.901989">
        <ele>98.969216</ele>
        <time>2025-09-29T16:01:37.462Z</time>
      </trkpt>
      <trkpt lat="52.023986" lon="8.901106">
        <ele>99.197928</ele>
        <time>2025-09-29T16:01:49.246Z</time>
      </trkpt>
      <trkpt lat="52.024077" lon="8.899614">
        <ele>99.595863</ele>
        <time>2025-09-29T16:02:08.706Z</time>
      </trkpt>
      <trkpt lat="52.024100" lon="8.899368">
        <ele>99.661904</ele>
        <time>2025-09-29T16:02:11.965Z</time>
      </trkpt>
      <trkpt lat="52.024068" lon="8.899374">
        <ele>99.675798</ele>
        <time>2025-09-29T16:02:12.693Z</time>
      </trkpt>
      <trkpt lat="52.023849" lon="8.899407">
        <ele>99.770665</ele>
        <time>2025-09-29T16:02:17.579Z</time>
      </trkpt>
      <trkpt lat="52.023674" lon="8.899411">
        <ele>100.407036</ele>
        <time>2025-09-29T16:02:21.709Z</time>
      </trkpt>
      <trkpt lat="52.023588" lon="8.899390">
        <ele>100.751213</ele>
        <time>2025-09-29T16:02:23.770Z</time>
      </trkpt>
      <trkpt lat="52.023537" lon="8.899502">
        <ele>101.090525</ele>
        <time>2025-09-29T16:02:25.778Z</time>
      </trkpt>
      <trkpt lat="52.023348" lon="8.899599">
        <ele>101.874932</ele>
        <time>2025-09-29T16:02:30.500Z</time>
      </trkpt>
      <trkpt lat="52.023324" lon="8.899495">
        <ele>102.145427</ele>
        <time>2025-09-29T16:02:32.456Z</time>
      </trkpt>
      <trkpt lat="52.023089" lon="8.899622">
        <ele>103.125549</ele>
        <time>2025-09-29T16:02:39.697Z</time>
      </trkpt>
      <trkpt lat="52.023075" lon="8.899646">
        <ele>103.206084</ele>
        <time>2025-09-29T16:02:40.310Z</time>
      </trkpt>
      <trkpt lat="52.022876" lon="8.899654">
        <ele>103.993895</ele>
        <time>2025-09-29T16:02:46.396Z</time>
      </trkpt>
      <trkpt lat="52.022793" lon="8.899667">
        <ele>104.323900</ele>
        <time>2025-09-29T16:02:48.990Z</time>
      </trkpt>
      <trkpt lat="52.022794" lon="8.899637">
        <ele>104.397067</ele>
        <time>2025-09-29T16:02:49.485Z</time>
      </trkpt>
      <trkpt lat="52.022794" lon="8.899612">
        <ele>104.457950</ele>
        <time>2025-09-29T16:02:49.903Z</time>
      </trkpt>
      <trkpt lat="52.022801" lon="8.899414">
        <ele>104.940939</ele>
        <time>2025-09-29T16:02:53.236Z</time>
      </trkpt>
      <trkpt lat="52.022705" lon="8.899513">
        <ele>105.390913</ele>
        <time>2025-09-29T16:02:56.375Z</time>
      </trkpt>
      <trkpt lat="52.022683" lon="8.899617">
        <ele>105.658735</ele>
        <time>2025-09-29T16:02:58.258Z</time>
      </trkpt>
      <trkpt lat="52.022670" lon="8.899678">
        <ele>105.815947</ele>
        <time>2025-09-29T16:02:59.386Z</time>
      </trkpt>
      <trkpt lat="52.022332" lon="8.899593">
        <ele>107.196593</ele>
        <time>2025-09-29T16:03:09.360Z</time>
      </trkpt>
      <trkpt lat="52.021981" lon="8.899493">
        <ele>108.746294</ele>
        <time>2025-09-29T16:03:19.709Z</time>
      </trkpt>
      <trkpt lat="52.021367" lon="8.899321">
        <ele>111.455826</ele>
        <time>2025-09-29T16:03:36.600Z</time>
      </trkpt>
      <trkpt lat="52.021224" lon="8.899213">
        <ele>112.141582</ele>
        <time>2025-09-29T16:03:40.650Z</time>
      </trkpt>
      <trkpt lat="52.020953" lon="8.898970">
        <ele>113.487610</ele>
        <time>2025-09-29T16:03:48.262Z</time>
      </trkpt>
      <trkpt lat="52.020901" lon="8.898928">
        <ele>113.740139</ele>
        <time>2025-09-29T16:03:49.651Z</time>
      </trkpt>
      <trkpt lat="52.020279" lon="8.898426">
        <ele>114.787926</ele>
        <time>2025-09-29T16:04:05.528Z</time>
      </trkpt>
      <trkpt lat="52.019783" lon="8.898084">
        <ele>114.868349</ele>
        <time>2025-09-29T16:04:16.810Z</time>
      </trkpt>
      <trkpt lat="52.019676" lon="8.898034">
        <ele>114.884967</ele>
        <time>2025-09-29T16:04:19.051Z</time>
      </trkpt>
      <trkpt lat="52.019296" lon="8.897967">
        <ele>114.942020</ele>
        <time>2025-09-29T16:04:26.592Z</time>
      </trkpt>
      <trkpt lat="52.019129" lon="8.897880">
        <ele>114.968196</ele>
        <time>2025-09-29T16:04:30.007Z</time>
      </trkpt>
      <trkpt lat="52.018499" lon="8.897354">
        <ele>114.551412</ele>
        <time>2025-09-29T16:04:43.644Z</time>
      </trkpt>
      <trkpt lat="52.018432" lon="8.897310">
        <ele>114.497880</ele>
        <time>2025-09-29T16:04:45.009Z</time>
      </trkpt>
      <trkpt lat="52.018370" lon="8.897258">
        <ele>114.446196</ele>
        <time>2025-09-29T16:04:46.350Z</time>
      </trkpt>
      <trkpt lat="52.018011" lon="8.896748">
        <ele>114.092960</ele>
        <time>2025-09-29T16:04:55.621Z</time>
      </trkpt>
      <trkpt lat="52.017698" lon="8.896259">
        <ele>113.771316</ele>
        <time>2025-09-29T16:05:04.378Z</time>
      </trkpt>
      <trkpt lat="52.017625" lon="8.896164">
        <ele>113.702035</ele>
        <time>2025-09-29T16:05:06.325Z</time>
      </trkpt>
      <trkpt lat="52.017411" lon="8.895903">
        <ele>113.692449</ele>
        <time>2025-09-29T16:05:11.957Z</time>
      </trkpt>
      <trkpt lat="52.017073" lon="8.895568">
        <ele>113.767739</ele>
        <time>2025-09-29T16:05:20.328Z</time>
      </trkpt>
      <trkpt lat="52.016916" lon="8.895413">
        <ele>113.802674</ele>
        <time>2025-09-29T16:05:24.288Z</time>
      </trkpt>
      <trkpt lat="52.016800" lon="8.895210">
        <ele>113.835094</ele>
        <time>2025-09-29T16:05:27.977Z</time>
      </trkpt>
      <trkpt lat="52.016712" lon="8.894966">
        <ele>113.868193</ele>
        <time>2025-09-29T16:05:31.796Z</time>
      </trkpt>
      <trkpt lat="52.016678" lon="8.894870">
        <ele>113.881156</ele>
        <time>2025-09-29T16:05:33.281Z</time>
      </trkpt>
      <trkpt lat="52.016404" lon="8.894007">
        <ele>113.994806</ele>
        <time>2025-09-29T16:05:46.260Z</time>
      </trkpt>
      <trkpt lat="52.016199" lon="8.893466">
        <ele>114.271052</ele>
        <time>2025-09-29T16:05:54.631Z</time>
      </trkpt>
      <trkpt lat="52.015762" lon="8.892411">
        <ele>114.830381</ele>
        <time>2025-09-29T16:06:11.875Z</time>
      </trkpt>
      <trkpt lat="52.015220" lon="8.891113">
        <ele>115.801375</ele>
        <time>2025-09-29T16:06:33.689Z</time>
      </trkpt>
      <trkpt lat="52.014898" lon="8.890313">
        <ele>116.716473</ele>
        <time>2025-09-29T16:06:47.293Z</time>
      </trkpt>
      <trkpt lat="52.014882" lon="8.890169">
        <ele>116.856557</ele>
        <time>2025-09-29T16:06:49.397Z</time>
      </trkpt>
      <trkpt lat="52.014929" lon="8.889950">
        <ele>117.078593</ele>
        <time>2025-09-29T16:06:52.715Z</time>
      </trkpt>
      <trkpt lat="52.014368" lon="8.889550">
        <ele>118.031539</ele>
        <time>2025-09-29T16:07:06.849Z</time>
      </trkpt>
      <trkpt lat="52.013952" lon="8.889250">
        <ele>118.683194</ele>
        <time>2025-09-29T16:07:17.382Z</time>
      </trkpt>
      <trkpt lat="52.013664" lon="8.889043">
        <ele>119.131286</ele>
        <time>2025-09-29T16:07:24.746Z</time>
      </trkpt>
      <trkpt lat="52.012279" lon="8.888038">
        <ele>121.175813</ele>
        <time>2025-09-29T16:07:59.147Z</time>
      </trkpt>
      <trkpt lat="52.011734" lon="8.887663">
        <ele>121.870844</ele>
        <time>2025-09-29T16:08:12.372Z</time>
      </trkpt>
      <trkpt lat="52.011435" lon="8.887446">
        <ele>122.255404</ele>
        <time>2025-09-29T16:08:19.745Z</time>
      </trkpt>
      <trkpt lat="52.010708" lon="8.886917">
        <ele>123.356917</ele>
        <time>2025-09-29T16:08:38.088Z</time>
      </trkpt>
      <trkpt lat="52.010312" lon="8.886635">
        <ele>124.056158</ele>
        <time>2025-09-29T16:08:48.157Z</time>
      </trkpt>
      <trkpt lat="52.010010" lon="8.886411">
        <ele>124.593052</ele>
        <time>2025-09-29T16:08:55.879Z</time>
      </trkpt>
      <trkpt lat="52.009774" lon="8.886245">
        <ele>125.008953</ele>
        <time>2025-09-29T16:09:01.852Z</time>
      </trkpt>
      <trkpt lat="52.009763" lon="8.886160">
        <ele>125.095416</ele>
        <time>2025-09-29T16:09:03.088Z</time>
      </trkpt>
      <trkpt lat="52.009597" lon="8.885983">
        <ele>125.416531</ele>
        <time>2025-09-29T16:09:07.674Z</time>
      </trkpt>
      <trkpt lat="52.008486" lon="8.885194">
        <ele>126.728067</ele>
        <time>2025-09-29T16:09:35.052Z</time>
      </trkpt>
      <trkpt lat="52.007535" lon="8.884509">
        <ele>127.720009</ele>
        <time>2025-09-29T16:09:58.141Z</time>
      </trkpt>
      <trkpt lat="52.006531" lon="8.883775">
        <ele>128.629970</ele>
        <time>2025-09-29T16:10:22.712Z</time>
      </trkpt>
      <trkpt lat="52.005948" lon="8.883388">
        <ele>129.239786</ele>
        <time>2025-09-29T16:10:36.817Z</time>
      </trkpt>
      <trkpt lat="52.004997" lon="8.882718">
        <ele>130.488471</ele>
        <time>2025-09-29T16:11:00.223Z</time>
      </trkpt>
      <trkpt lat="52.004817" lon="8.882645">
        <ele>130.711956</ele>
        <time>2025-09-29T16:11:04.420Z</time>
      </trkpt>
      <trkpt lat="52.003678" lon="8.881815">
        <ele>133.009381</ele>
        <time>2025-09-29T16:11:33.329Z</time>
      </trkpt>
      <trkpt lat="52.003177" lon="8.881314">
        <ele>134.232327</ele>
        <time>2025-09-29T16:11:47.366Z</time>
      </trkpt>
      <trkpt lat="52.002851" lon="8.880812">
        <ele>135.207992</ele>
        <time>2025-09-29T16:11:58.110Z</time>
      </trkpt>
      <trkpt lat="52.002671" lon="8.880405">
        <ele>135.937342</ele>
        <time>2025-09-29T16:12:05.379Z</time>
      </trkpt>
      <trkpt lat="52.002616" lon="8.880256">
        <ele>136.190189</ele>
        <time>2025-09-29T16:12:07.896Z</time>
      </trkpt>
      <trkpt lat="52.002576" lon="8.880143">
        <ele>136.379898</ele>
        <time>2025-09-29T16:12:09.792Z</time>
      </trkpt>
      <trkpt lat="52.002496" lon="8.880044">
        <ele>136.617656</ele>
        <time>2025-09-29T16:12:12.179Z</time>
      </trkpt>
      <trkpt lat="52.002399" lon="8.879835">
        <ele>136.998590</ele>
        <time>2025-09-29T16:12:15.978Z</time>
      </trkpt>
      <trkpt lat="52.002314" lon="8.879618">
        <ele>137.372921</ele>
        <time>2025-09-29T16:12:19.730Z</time>
      </trkpt>
      <trkpt lat="52.002119" lon="8.879260">
        <ele>138.068619</ele>
        <time>2025-09-29T16:12:26.653Z</time>
      </trkpt>
      <trkpt lat="52.002081" lon="8.879296">
        <ele>138.172617</ele>
        <time>2025-09-29T16:12:27.690Z</time>
      </trkpt>
      <trkpt lat="52.001995" lon="8.879410">
        <ele>138.435037</ele>
        <time>2025-09-29T16:12:30.312Z</time>
      </trkpt>
      <trkpt lat="52.001944" lon="8.879593">
        <ele>138.727397</ele>
        <time>2025-09-29T16:12:33.211Z</time>
      </trkpt>
      <trkpt lat="52.001563" lon="8.881096">
        <ele>141.581580</ele>
        <time>2025-09-29T16:12:56.981Z</time>
      </trkpt>
      <trkpt lat="52.001486" lon="8.881356">
        <ele>142.105095</ele>
        <time>2025-09-29T16:13:01.330Z</time>
      </trkpt>
      <trkpt lat="52.001400" lon="8.881540">
        <ele>142.524278</ele>
        <time>2025-09-29T16:13:04.814Z</time>
      </trkpt>
      <trkpt lat="52.001332" lon="8.881605">
        <ele>142.756824</ele>
        <time>2025-09-29T16:13:06.769Z</time>
      </trkpt>
      <trkpt lat="51.999377" lon="8.882461">
        <ele>149.205697</ele>
        <time>2025-09-29T16:13:56.984Z</time>
      </trkpt>
      <trkpt lat="51.998997" lon="8.882511">
        <ele>150.326933</ele>
        <time>2025-09-29T16:14:06.273Z</time>
      </trkpt>
      <trkpt lat="51.998335" lon="8.882430">
        <ele>150.618850</ele>
        <time>2025-09-29T16:14:21.703Z</time>
      </trkpt>
      <trkpt lat="51.998089" lon="8.882392">
        <ele>150.727508</ele>
        <time>2025-09-29T16:14:27.138Z</time>
      </trkpt>
      <trkpt lat="51.998090" lon="8.882267">
        <ele>150.761352</ele>
        <time>2025-09-29T16:14:28.797Z</time>
      </trkpt>
      <trkpt lat="51.997253" lon="8.882131">
        <ele>151.014300</ele>
        <time>2025-09-29T16:14:44.936Z</time>
      </trkpt>
      <trkpt lat="51.996312" lon="8.881978">
        <ele>149.966631</ele>
        <time>2025-09-29T16:15:01.514Z</time>
      </trkpt>
      <trkpt lat="51.996019" lon="8.881862">
        <ele>149.632535</ele>
        <time>2025-09-29T16:15:07.336Z</time>
      </trkpt>
      <trkpt lat="51.995665" lon="8.881775">
        <ele>149.235902</ele>
        <time>2025-09-29T16:15:14.636Z</time>
      </trkpt>
      <trkpt lat="51.995083" lon="8.881807">
        <ele>149.670984</ele>
        <time>2025-09-29T16:15:27.430Z</time>
      </trkpt>
      <trkpt lat="51.994249" lon="8.881788">
        <ele>150.686380</ele>
        <time>2025-09-29T16:15:46.578Z</time>
      </trkpt>
      <trkpt lat="51.993412" lon="8.881521">
        <ele>151.949076</ele>
        <time>2025-09-29T16:16:06.363Z</time>
      </trkpt>
      <trkpt lat="51.992979" lon="8.881441">
        <ele>152.756487</ele>
        <time>2025-09-29T16:16:16.501Z</time>
      </trkpt>
      <trkpt lat="51.992185" lon="8.881260">
        <ele>154.241983</ele>
        <time>2025-09-29T16:16:35.266Z</time>
      </trkpt>
      <trkpt lat="51.992003" lon="8.881162">
        <ele>154.597234</ele>
        <time>2025-09-29T16:16:39.724Z</time>
      </trkpt>
      <trkpt lat="51.991937" lon="8.881235">
        <ele>154.722998</ele>
        <time>2025-09-29T16:16:41.587Z</time>
      </trkpt>
      <trkpt lat="51.991816" lon="8.881213">
        <ele>154.906062</ele>
        <time>2025-09-29T16:16:44.415Z</time>
      </trkpt>
      <trkpt lat="51.990862" lon="8.880915">
        <ele>156.366726</ele>
        <time>2025-09-29T16:17:06.641Z</time>
      </trkpt>
      <trkpt lat="51.989993" lon="8.880721">
        <ele>157.814742</ele>
        <time>2025-09-29T16:17:26.697Z</time>
      </trkpt>
      <trkpt lat="51.989863" lon="8.880695">
        <ele>158.083576</ele>
        <time>2025-09-29T16:17:29.724Z</time>
      </trkpt>
      <trkpt lat="51.989596" lon="8.880613">
        <ele>158.641292</ele>
        <time>2025-09-29T16:17:36.023Z</time>
      </trkpt>
      <trkpt lat="51.988819" lon="8.880701">
        <ele>160.239913</ele>
        <time>2025-09-29T16:17:54.374Z</time>
      </trkpt>
      <trkpt lat="51.988216" lon="8.880816">
        <ele>161.521677</ele>
        <time>2025-09-29T16:18:08.836Z</time>
      </trkpt>
      <trkpt lat="51.987200" lon="8.881144">
        <ele>163.811537</ele>
        <time>2025-09-29T16:18:33.229Z</time>
      </trkpt>
      <trkpt lat="51.986634" lon="8.881669">
        <ele>165.294606</ele>
        <time>2025-09-29T16:18:48.424Z</time>
      </trkpt>
      <trkpt lat="51.986524" lon="8.881770">
        <ele>165.620488</ele>
        <time>2025-09-29T16:18:51.400Z</time>
      </trkpt>
      <trkpt lat="51.986097" lon="8.882381">
        <ele>167.088200</ele>
        <time>2025-09-29T16:19:04.842Z</time>
      </trkpt>
      <trkpt lat="51.985303" lon="8.883396">
        <ele>169.700797</ele>
        <time>2025-09-29T16:19:29.222Z</time>
      </trkpt>
      <trkpt lat="51.985088" lon="8.883745">
        <ele>170.576470</ele>
        <time>2025-09-29T16:19:36.691Z</time>
      </trkpt>
      <trkpt lat="51.984651" lon="8.884694">
        <ele>172.678493</ele>
        <time>2025-09-29T16:19:54.506Z</time>
      </trkpt>
      <trkpt lat="51.984574" lon="8.884793">
        <ele>172.961396</ele>
        <time>2025-09-29T16:19:56.891Z</time>
      </trkpt>
      <trkpt lat="51.984028" lon="8.886082">
        <ele>175.563660</ele>
        <time>2025-09-29T16:20:19.847Z</time>
      </trkpt>
      <trkpt lat="51.983434" lon="8.887379">
        <ele>177.890630</ele>
        <time>2025-09-29T16:20:43.178Z</time>
      </trkpt>
      <trkpt lat="51.983383" lon="8.887387">
        <ele>178.010403</ele>
        <time>2025-09-29T16:20:44.371Z</time>
      </trkpt>
      <trkpt lat="51.983324" lon="8.887474">
        <ele>178.196710</ele>
        <time>2025-09-29T16:20:46.250Z</time>
      </trkpt>
      <trkpt lat="51.982637" lon="8.888975">
        <ele>181.504917</ele>
        <time>2025-09-29T16:21:13.849Z</time>
      </trkpt>
      <trkpt lat="51.982431" lon="8.889422">
        <ele>182.573949</ele>
        <time>2025-09-29T16:21:22.293Z</time>
      </trkpt>
      <trkpt lat="51.982382" lon="8.889634">
        <ele>183.007544</ele>
        <time>2025-09-29T16:21:25.723Z</time>
      </trkpt>
      <trkpt lat="51.982251" lon="8.889840">
        <ele>183.574538</ele>
        <time>2025-09-29T16:21:30.232Z</time>
      </trkpt>
      <trkpt lat="51.982098" lon="8.889995">
        <ele>184.135223</ele>
        <time>2025-09-29T16:21:34.705Z</time>
      </trkpt>
      <trkpt lat="51.980933" lon="8.891818">
        <ele>189.751663</ele>
        <time>2025-09-29T16:22:15.166Z</time>
      </trkpt>
      <trkpt lat="51.979631" lon="8.893807">
        <ele>194.132182</ele>
        <time>2025-09-29T16:22:58.468Z</time>
      </trkpt>
      <trkpt lat="51.979555" lon="8.893928">
        <ele>194.367007</ele>
        <time>2025-09-29T16:23:00.861Z</time>
      </trkpt>
      <trkpt lat="51.979555" lon="8.893981">
        <ele>194.439024</ele>
        <time>2025-09-29T16:23:01.611Z</time>
      </trkpt>
      <trkpt lat="51.979598" lon="8.894070">
        <ele>194.592724</ele>
        <time>2025-09-29T16:23:03.124Z</time>
      </trkpt>
      <trkpt lat="51.979668" lon="8.894187">
        <ele>194.814359</ele>
        <time>2025-09-29T16:23:05.329Z</time>
      </trkpt>
      <trkpt lat="51.979546" lon="8.894376">
        <ele>194.575578</ele>
        <time>2025-09-29T16:23:08.831Z</time>
      </trkpt>
      <trkpt lat="51.979127" lon="8.895014">
        <ele>193.183998</ele>
        <time>2025-09-29T16:23:19.325Z</time>
      </trkpt>
      <trkpt lat="51.978850" lon="8.895342">
        <ele>192.353456</ele>
        <time>2025-09-29T16:23:24.943Z</time>
      </trkpt>
      <trkpt lat="51.978309" lon="8.895802">
        <ele>190.874039</ele>
        <time>2025-09-29T16:23:34.755Z</time>
      </trkpt>
      <trkpt lat="51.978103" lon="8.895934">
        <ele>190.141848</ele>
        <time>2025-09-29T16:23:38.181Z</time>
      </trkpt>
      <trkpt lat="51.977544" lon="8.896166">
        <ele>187.380226</ele>
        <time>2025-09-29T16:23:46.923Z</time>
      </trkpt>
      <trkpt lat="51.977104" lon="8.896214">
        <ele>185.269477</ele>
        <time>2025-09-29T16:23:53.635Z</time>
      </trkpt>
      <trkpt lat="51.976527" lon="8.896171">
        <ele>182.504837</ele>
        <time>2025-09-29T16:24:02.338Z</time>
      </trkpt>
      <trkpt lat="51.975990" lon="8.896080">
        <ele>180.095714</ele>
        <time>2025-09-29T16:24:10.440Z</time>
      </trkpt>
      <trkpt lat="51.975468" lon="8.896084">
        <ele>177.815043</ele>
        <time>2025-09-29T16:24:18.368Z</time>
      </trkpt>
      <trkpt lat="51.973832" lon="8.895901">
        <ele>172.006680</ele>
        <time>2025-09-29T16:24:44.486Z</time>
      </trkpt>
      <trkpt lat="51.973129" lon="8.895775">
        <ele>170.141933</ele>
        <time>2025-09-29T16:24:56.773Z</time>
      </trkpt>
      <trkpt lat="51.972870" lon="8.895781">
        <ele>169.459002</ele>
        <time>2025-09-29T16:25:01.459Z</time>
      </trkpt>
      <trkpt lat="51.971341" lon="8.895597">
        <ele>167.473826</ele>
        <time>2025-09-29T16:25:30.718Z</time>
      </trkpt>
      <trkpt lat="51.970246" lon="8.895761">
        <ele>165.720007</ele>
        <time>2025-09-29T16:25:51.538Z</time>
      </trkpt>
      <trkpt lat="51.969886" lon="8.895876">
        <ele>165.084064</ele>
        <time>2025-09-29T16:25:57.935Z</time>
      </trkpt>
      <trkpt lat="51.968907" lon="8.896012">
        <ele>163.863654</ele>
        <time>2025-09-29T16:26:14.966Z</time>
      </trkpt>
      <trkpt lat="51.968803" lon="8.896059">
        <ele>163.831809</ele>
        <time>2025-09-29T16:26:16.893Z</time>
      </trkpt>
      <trkpt lat="51.968208" lon="8.895870">
        <ele>163.652962</ele>
        <time>2025-09-29T16:26:28.752Z</time>
      </trkpt>
      <trkpt lat="51.968104" lon="8.895812">
        <ele>163.620523</ele>
        <time>2025-09-29T16:26:31.061Z</time>
      </trkpt>
      <trkpt lat="51.968073" lon="8.896451">
        <ele>163.504030</ele>
        <time>2025-09-29T16:26:39.735Z</time>
      </trkpt>
      <trkpt lat="51.968064" lon="8.896530">
        <ele>163.489429</ele>
        <time>2025-09-29T16:26:40.872Z</time>
      </trkpt>
      <trkpt lat="51.967891" lon="8.898565">
        <ele>166.845758</ele>
        <time>2025-09-29T16:27:10.908Z</time>
      </trkpt>
      <trkpt lat="51.965714" lon="8.898102">
        <ele>175.255985</ele>
        <time>2025-09-29T16:28:09.500Z</time>
      </trkpt>
      <trkpt lat="51.965566" lon="8.898041">
        <ele>175.889589</ele>
        <time>2025-09-29T16:28:13.375Z</time>
      </trkpt>
      <trkpt lat="51.965411" lon="8.897894">
        <ele>176.630778</ele>
        <time>2025-09-29T16:28:17.864Z</time>
      </trkpt>
      <trkpt lat="51.965277" lon="8.897668">
        <ele>177.019573</ele>
        <time>2025-09-29T16:28:22.629Z</time>
      </trkpt>
      <trkpt lat="51.964774" lon="8.896509">
        <ele>178.776894</ele>
        <time>2025-09-29T16:28:43.535Z</time>
      </trkpt>
      <trkpt lat="51.964595" lon="8.896189">
        <ele>179.312655</ele>
        <time>2025-09-29T16:28:49.803Z</time>
      </trkpt>
      <trkpt lat="51.964390" lon="8.896006">
        <ele>179.783359</ele>
        <time>2025-09-29T16:28:55.325Z</time>
      </trkpt>
      <trkpt lat="51.963649" lon="8.895516">
        <ele>180.463896</ele>
        <time>2025-09-29T16:29:14.285Z</time>
      </trkpt>
      <trkpt lat="51.963339" lon="8.895468">
        <ele>180.582938</ele>
        <time>2025-09-29T16:29:21.669Z</time>
      </trkpt>
      <trkpt lat="51.962372" lon="8.895760">
        <ele>180.749806</ele>
        <time>2025-09-29T16:29:42.926Z</time>
      </trkpt>
      <trkpt lat="51.962283" lon="8.895791">
        <ele>180.498747</ele>
        <time>2025-09-29T16:29:44.618Z</time>
      </trkpt>
      <trkpt lat="51.960904" lon="8.896356">
        <ele>176.576011</ele>
        <time>2025-09-29T16:30:08.842Z</time>
      </trkpt>
      <trkpt lat="51.960183" lon="8.896977">
        <ele>174.422562</ele>
        <time>2025-09-29T16:30:22.866Z</time>
      </trkpt>
      <trkpt lat="51.960165" lon="8.896480">
        <ele>173.626666</ele>
        <time>2025-09-29T16:30:28.044Z</time>
      </trkpt>
      <trkpt lat="51.960155" lon="8.895801">
        <ele>172.540877</ele>
        <time>2025-09-29T16:30:35.206Z</time>
      </trkpt>
      <trkpt lat="51.960150" lon="8.895528">
        <ele>172.104255</ele>
        <time>2025-09-29T16:30:38.105Z</time>
      </trkpt>
      <trkpt lat="51.960143" lon="8.894987">
        <ele>171.255793</ele>
        <time>2025-09-29T16:30:43.899Z</time>
      </trkpt>
      <trkpt lat="51.960082" lon="8.893922">
        <ele>169.968009</ele>
        <time>2025-09-29T16:30:55.480Z</time>
      </trkpt>
      <trkpt lat="51.960091" lon="8.893324">
        <ele>169.247803</ele>
        <time>2025-09-29T16:31:01.880Z</time>
      </trkpt>
      <trkpt lat="51.960106" lon="8.893136">
        <ele>169.019562</ele>
        <time>2025-09-29T16:31:03.965Z</time>
      </trkpt>
      <trkpt lat="51.960139" lon="8.892565">
        <ele>168.329063</ele>
        <time>2025-09-29T16:31:10.192Z</time>
      </trkpt>
      <trkpt lat="51.960158" lon="8.892073">
        <ele>167.761103</ele>
        <time>2025-09-29T16:31:15.620Z</time>
      </trkpt>
      <trkpt lat="51.960163" lon="8.891920">
        <ele>167.660019</ele>
        <time>2025-09-29T16:31:17.386Z</time>
      </trkpt>
      <trkpt lat="51.960192" lon="8.891415">
        <ele>167.325401</ele>
        <time>2025-09-29T16:31:23.314Z</time>
      </trkpt>
      <trkpt lat="51.960225" lon="8.890819">
        <ele>166.930607</ele>
        <time>2025-09-29T16:31:30.363Z</time>
      </trkpt>
      <trkpt lat="51.960230" lon="8.890269">
        <ele>166.567705</ele>
        <time>2025-09-29T16:31:37.007Z</time>
      </trkpt>
      <trkpt lat="51.960195" lon="8.889914">
        <ele>166.330515</ele>
        <time>2025-09-29T16:31:41.401Z</time>
      </trkpt>
      <trkpt lat="51.960037" lon="8.889364">
        <ele>165.930158</ele>
        <time>2025-09-29T16:31:48.702Z</time>
      </trkpt>
      <trkpt lat="51.960023" lon="8.889313">
        <ele>165.893323</ele>
        <time>2025-09-29T16:31:49.387Z</time>
      </trkpt>
      <trkpt lat="51.959875" lon="8.888834">
        <ele>165.721102</ele>
        <time>2025-09-29T16:31:55.896Z</time>
      </trkpt>
      <trkpt lat="51.959795" lon="8.888569">
        <ele>165.634501</ele>
        <time>2025-09-29T16:31:59.508Z</time>
      </trkpt>
      <trkpt lat="51.959717" lon="8.888303">
        <ele>165.548051</ele>
        <time>2025-09-29T16:32:03.119Z</time>
      </trkpt>
      <trkpt lat="51.959612" lon="8.887958">
        <ele>165.435128</ele>
        <time>2025-09-29T16:32:07.827Z</time>
      </trkpt>
      <trkpt lat="51.959405" lon="8.887247">
        <ele>165.204354</ele>
        <time>2025-09-29T16:32:17.592Z</time>
      </trkpt>
      <trkpt lat="51.959064" lon="8.887393">
        <ele>165.036397</ele>
        <time>2025-09-29T16:32:24.943Z</time>
      </trkpt>
      <trkpt lat="51.958653" lon="8.887568">
        <ele>164.957653</ele>
        <time>2025-09-29T16:32:34.106Z</time>
      </trkpt>
      <trkpt lat="51.957814" lon="8.887929">
        <ele>164.835067</ele>
        <time>2025-09-29T16:32:52.998Z</time>
      </trkpt>
      <trkpt lat="51.957676" lon="8.887986">
        <ele>164.814956</ele>
        <time>2025-09-29T16:32:55.967Z</time>
      </trkpt>
      <trkpt lat="51.955746" lon="8.888798">
        <ele>162.872953</ele>
        <time>2025-09-29T16:33:34.194Z</time>
      </trkpt>
      <trkpt lat="51.955656" lon="8.888873">
        <ele>162.751973</ele>
        <time>2025-09-29T16:33:36.013Z</time>
      </trkpt>
      <trkpt lat="51.955476" lon="8.888973">
        <ele>162.470515</ele>
        <time>2025-09-29T16:33:39.408Z</time>
      </trkpt>
      <trkpt lat="51.955285" lon="8.889024">
        <ele>162.083975</ele>
        <time>2025-09-29T16:33:42.871Z</time>
      </trkpt>
      <trkpt lat="51.954654" lon="8.889053">
        <ele>160.823417</ele>
        <time>2025-09-29T16:33:54.069Z</time>
      </trkpt>
      <trkpt lat="51.954153" lon="8.889228">
        <ele>159.800044</ele>
        <time>2025-09-29T16:34:03.178Z</time>
      </trkpt>
      <trkpt lat="51.953865" lon="8.889251">
        <ele>159.224236</ele>
        <time>2025-09-29T16:34:08.224Z</time>
      </trkpt>
      <trkpt lat="51.953325" lon="8.889160">
        <ele>157.860283</ele>
        <time>2025-09-29T16:34:17.188Z</time>
      </trkpt>
      <trkpt lat="51.953258" lon="8.889040">
        <ele>157.597144</ele>
        <time>2025-09-29T16:34:18.817Z</time>
      </trkpt>
      <trkpt lat="51.953143" lon="8.889015">
        <ele>157.291196</ele>
        <time>2025-09-29T16:34:20.731Z</time>
      </trkpt>
      <trkpt lat="51.952762" lon="8.889052">
        <ele>156.284756</ele>
        <time>2025-09-29T16:34:26.956Z</time>
      </trkpt>
      <trkpt lat="51.952702" lon="8.889045">
        <ele>156.126136</ele>
        <time>2025-09-29T16:34:27.942Z</time>
      </trkpt>
      <trkpt lat="51.952446" lon="8.888761">
        <ele>155.308402</ele>
        <time>2025-09-29T16:34:33.145Z</time>
      </trkpt>
      <trkpt lat="51.952385" lon="8.888870">
        <ele>155.069130</ele>
        <time>2025-09-29T16:34:35.296Z</time>
      </trkpt>
      <trkpt lat="51.952190" lon="8.889165">
        <ele>154.366116</ele>
        <time>2025-09-29T16:34:41.660Z</time>
      </trkpt>
      <trkpt lat="51.952141" lon="8.889065">
        <ele>154.252345</ele>
        <time>2025-09-29T16:34:43.053Z</time>
      </trkpt>
      <trkpt lat="51.952094" lon="8.888958">
        <ele>154.217730</ele>
        <time>2025-09-29T16:34:44.472Z</time>
      </trkpt>
      <trkpt lat="51.951907" lon="8.889116">
        <ele>154.127610</ele>
        <time>2025-09-29T16:34:49.546Z</time>
      </trkpt>
      <trkpt lat="51.951598" lon="8.889453">
        <ele>153.968466</ele>
        <time>2025-09-29T16:34:58.879Z</time>
      </trkpt>
      <trkpt lat="51.951527" lon="8.889484">
        <ele>153.937038</ele>
        <time>2025-09-29T16:35:00.400Z</time>
      </trkpt>
      <trkpt lat="51.951437" lon="8.889458">
        <ele>153.897964</ele>
        <time>2025-09-29T16:35:02.234Z</time>
      </trkpt>
      <trkpt lat="51.951387" lon="8.889515">
        <ele>153.871844</ele>
        <time>2025-09-29T16:35:03.544Z</time>
      </trkpt>
      <trkpt lat="51.951288" lon="8.889399">
        <ele>153.819646</ele>
        <time>2025-09-29T16:35:06.154Z</time>
      </trkpt>
      <trkpt lat="51.951198" lon="8.889344">
        <ele>153.778538</ele>
        <time>2025-09-29T16:35:08.208Z</time>
      </trkpt>
      <trkpt lat="51.950964" lon="8.889064">
        <ele>153.654258</ele>
        <time>2025-09-29T16:35:14.788Z</time>
      </trkpt>
      <trkpt lat="51.950660" lon="8.888863">
        <ele>153.513941</ele>
        <time>2025-09-29T16:35:22.324Z</time>
      </trkpt>
      <trkpt lat="51.949897" lon="8.888646">
        <ele>155.084625</ele>
        <time>2025-09-29T16:35:40.943Z</time>
      </trkpt>
      <trkpt lat="51.949503" lon="8.888555">
        <ele>155.929123</ele>
        <time>2025-09-29T16:35:50.940Z</time>
      </trkpt>
      <trkpt lat="51.949064" lon="8.888435">
        <ele>156.873810</ele>
        <time>2025-09-29T16:36:01.829Z</time>
      </trkpt>
      <trkpt lat="51.948857" lon="8.888383">
        <ele>157.318299</ele>
        <time>2025-09-29T16:36:06.844Z</time>
      </trkpt>
      <trkpt lat="51.948730" lon="8.888351">
        <ele>157.348688</ele>
        <time>2025-09-29T16:36:09.886Z</time>
      </trkpt>
      <trkpt lat="51.948209" lon="8.888218">
        <ele>157.472990</ele>
        <time>2025-09-29T16:36:22.218Z</time>
      </trkpt>
      <trkpt lat="51.948074" lon="8.888182">
        <ele>157.505234</ele>
        <time>2025-09-29T16:36:25.305Z</time>
      </trkpt>
      <trkpt lat="51.947722" lon="8.888106">
        <ele>157.588926</ele>
        <time>2025-09-29T16:36:32.490Z</time>
      </trkpt>
      <trkpt lat="51.947689" lon="8.888060">
        <ele>157.599180</ele>
        <time>2025-09-29T16:36:33.336Z</time>
      </trkpt>
      <trkpt lat="51.947564" lon="8.888017">
        <ele>157.629295</ele>
        <time>2025-09-29T16:36:35.784Z</time>
      </trkpt>
      <trkpt lat="51.947513" lon="8.887883">
        <ele>157.652174</ele>
        <time>2025-09-29T16:36:37.667Z</time>
      </trkpt>
      <trkpt lat="51.947553" lon="8.887670">
        <ele>157.684521</ele>
        <time>2025-09-29T16:36:40.340Z</time>
      </trkpt>
      <trkpt lat="51.947549" lon="8.887572">
        <ele>157.698788</ele>
        <time>2025-09-29T16:36:41.531Z</time>
      </trkpt>
      <trkpt lat="51.947599" lon="8.887357">
        <ele>157.732171</ele>
        <time>2025-09-29T16:36:44.327Z</time>
      </trkpt>
      <trkpt lat="51.947702" lon="8.886938">
        <ele>157.546874</ele>
        <time>2025-09-29T16:36:49.890Z</time>
      </trkpt>
      <trkpt lat="51.947762" lon="8.886706">
        <ele>157.417889</ele>
        <time>2025-09-29T16:36:53.008Z</time>
      </trkpt>
      <trkpt lat="51.947801" lon="8.886551">
        <ele>157.332059</ele>
        <time>2025-09-29T16:36:55.093Z</time>
      </trkpt>
      <trkpt lat="51.947746" lon="8.886533">
        <ele>157.285391</ele>
        <time>2025-09-29T16:36:57.033Z</time>
      </trkpt>
      <trkpt lat="51.947307" lon="8.886397">
        <ele>156.913657</ele>
        <time>2025-09-29T16:37:12.496Z</time>
      </trkpt>
      <trkpt lat="51.946925" lon="8.886272">
        <ele>156.589531</ele>
        <time>2025-09-29T16:37:20.182Z</time>
      </trkpt>
      <trkpt lat="51.946767" lon="8.886221">
        <ele>156.455539</ele>
        <time>2025-09-29T16:37:23.328Z</time>
      </trkpt>
      <trkpt lat="51.946713" lon="8.886148">
        <ele>156.397075</ele>
        <time>2025-09-29T16:37:24.700Z</time>
      </trkpt>
      <trkpt lat="51.946479" lon="8.886071">
        <ele>156.147261</ele>
        <time>2025-09-29T16:37:29.274Z</time>
      </trkpt>
      <trkpt lat="51.946330" lon="8.886022">
        <ele>155.885361</ele>
        <time>2025-09-29T16:37:32.087Z</time>
      </trkpt>
      <trkpt lat="51.945992" lon="8.885912">
        <ele>155.291497</ele>
        <time>2025-09-29T16:37:38.295Z</time>
      </trkpt>
      <trkpt lat="51.945861" lon="8.885873">
        <ele>155.062058</ele>
        <time>2025-09-29T16:37:40.663Z</time>
      </trkpt>
      <trkpt lat="51.945711" lon="8.885824">
        <ele>154.798471</ele>
        <time>2025-09-29T16:37:43.376Z</time>
      </trkpt>
      <trkpt lat="51.945098" lon="8.885625">
        <ele>153.721536</ele>
        <time>2025-09-29T16:37:54.327Z</time>
      </trkpt>
      <trkpt lat="51.944509" lon="8.885365">
        <ele>152.970204</ele>
        <time>2025-09-29T16:38:05.113Z</time>
      </trkpt>
      <trkpt lat="51.944325" lon="8.885236">
        <ele>152.841848</ele>
        <time>2025-09-29T16:38:08.787Z</time>
      </trkpt>
      <trkpt lat="51.944216" lon="8.885161">
        <ele>152.766031</ele>
        <time>2025-09-29T16:38:11.073Z</time>
      </trkpt>
      <trkpt lat="51.944188" lon="8.885137">
        <ele>152.745752</ele>
        <time>2025-09-29T16:38:11.678Z</time>
      </trkpt>
      <trkpt lat="51.944060" lon="8.885013">
        <ele>152.650285</ele>
        <time>2025-09-29T16:38:14.639Z</time>
      </trkpt>
      <trkpt lat="51.943643" lon="8.884656">
        <ele>152.348356</ele>
        <time>2025-09-29T16:38:24.391Z</time>
      </trkpt>
      <trkpt lat="51.942422" lon="8.883930">
        <ele>151.348424</ele>
        <time>2025-09-29T16:38:52.327Z</time>
      </trkpt>
      <trkpt lat="51.942320" lon="8.883870">
        <ele>151.254768</ele>
        <time>2025-09-29T16:38:55.292Z</time>
      </trkpt>
      <trkpt lat="51.942228" lon="8.883810">
        <ele>151.169177</ele>
        <time>2025-09-29T16:38:57.975Z</time>
      </trkpt>
      <trkpt lat="51.940819" lon="8.882971">
        <ele>147.747564</ele>
        <time>2025-09-29T16:39:24.567Z</time>
      </trkpt>
      <trkpt lat="51.940624" lon="8.882691">
        <ele>146.684167</ele>
        <time>2025-09-29T16:39:28.637Z</time>
      </trkpt>
      <trkpt lat="51.940287" lon="8.882240">
        <ele>144.900206</ele>
        <time>2025-09-29T16:39:35.182Z</time>
      </trkpt>
      <trkpt lat="51.940028" lon="8.881851">
        <ele>143.458892</ele>
        <time>2025-09-29T16:39:40.323Z</time>
      </trkpt>
      <trkpt lat="51.939836" lon="8.881588">
        <ele>142.386366</ele>
        <time>2025-09-29T16:39:43.962Z</time>
      </trkpt>
      <trkpt lat="51.939351" lon="8.880869">
        <ele>139.516685</ele>
        <time>2025-09-29T16:39:53.645Z</time>
      </trkpt>
      <trkpt lat="51.939307" lon="8.880803">
        <ele>139.254937</ele>
        <time>2025-09-29T16:39:54.549Z</time>
      </trkpt>
      <trkpt lat="51.939450" lon="8.880483">
        <ele>138.190753</ele>
        <time>2025-09-29T16:39:58.457Z</time>
      </trkpt>
      <trkpt lat="51.939573" lon="8.880031">
        <ele>136.860412</ele>
        <time>2025-09-29T16:40:03.532Z</time>
      </trkpt>
      <trkpt lat="51.939626" lon="8.879709">
        <ele>135.963032</ele>
        <time>2025-09-29T16:40:07.135Z</time>
      </trkpt>
      <trkpt lat="51.939660" lon="8.879478">
        <ele>135.323565</ele>
        <time>2025-09-29T16:40:09.675Z</time>
      </trkpt>
      <trkpt lat="51.939695" lon="8.879274">
        <ele>135.257213</ele>
        <time>2025-09-29T16:40:12.055Z</time>
      </trkpt>
      <trkpt lat="51.939651" lon="8.879254">
        <ele>135.262887</ele>
        <time>2025-09-29T16:40:12.953Z</time>
      </trkpt>
      <trkpt lat="51.939600" lon="8.879183">
        <ele>135.271232</ele>
        <time>2025-09-29T16:40:14.720Z</time>
      </trkpt>
      <trkpt lat="51.939358" lon="8.879108">
        <ele>135.301824</ele>
        <time>2025-09-29T16:40:21.466Z</time>
      </trkpt>
      <trkpt lat="51.939243" lon="8.879034">
        <ele>135.317186</ele>
        <time>2025-09-29T16:40:24.874Z</time>
      </trkpt>
      <trkpt lat="51.939219" lon="8.879017">
        <ele>135.320437</ele>
        <time>2025-09-29T16:40:25.432Z</time>
      </trkpt>
      <trkpt lat="51.939197" lon="8.878997">
        <ele>135.323569</ele>
        <time>2025-09-29T16:40:25.974Z</time>
      </trkpt>
      <trkpt lat="51.939149" lon="8.878950">
        <ele>135.330531</ele>
        <time>2025-09-29T16:40:27.525Z</time>
      </trkpt>
      <trkpt lat="51.938728" lon="8.878835">
        <ele>135.383541</ele>
        <time>2025-09-29T16:40:39.418Z</time>
      </trkpt>
      <trkpt lat="51.938669" lon="8.878824">
        <ele>135.390915</ele>
        <time>2025-09-29T16:40:40.756Z</time>
      </trkpt>
      <trkpt lat="51.938613" lon="8.878817">
        <ele>135.397889</ele>
        <time>2025-09-29T16:40:42.035Z</time>
      </trkpt>
      <trkpt lat="51.938516" lon="8.878813">
        <ele>135.409937</ele>
        <time>2025-09-29T16:40:44.747Z</time>
      </trkpt>
      <trkpt lat="51.938222" lon="8.878708">
        <ele>135.447316</ele>
        <time>2025-09-29T16:40:53.148Z</time>
      </trkpt>
      <trkpt lat="51.937586" lon="8.878480">
        <ele>135.899987</ele>
        <time>2025-09-29T16:41:11.462Z</time>
      </trkpt>
      <trkpt lat="51.937599" lon="8.878384">
        <ele>135.952943</ele>
        <time>2025-09-29T16:41:15.670Z</time>
      </trkpt>
      <trkpt lat="51.937520" lon="8.878357">
        <ele>136.023497</ele>
        <time>2025-09-29T16:41:17.530Z</time>
      </trkpt>
      <trkpt lat="51.937452" lon="8.878559">
        <ele>136.147498</ele>
        <time>2025-09-29T16:41:20.764Z</time>
      </trkpt>
      <trkpt lat="51.937402" lon="8.878498">
        <ele>136.202174</ele>
        <time>2025-09-29T16:41:22.517Z</time>
      </trkpt>
      <trkpt lat="51.937355" lon="8.878438">
        <ele>136.254443</ele>
        <time>2025-09-29T16:41:24.196Z</time>
      </trkpt>
      <trkpt lat="51.937078" lon="8.877265">
        <ele>136.931212</ele>
        <time>2025-09-29T16:41:45.711Z</time>
      </trkpt>
      <trkpt lat="51.937050" lon="8.877155">
        <ele>136.995332</ele>
        <time>2025-09-29T16:41:47.713Z</time>
      </trkpt>
      <trkpt lat="51.937021" lon="8.877040">
        <ele>137.045036</ele>
        <time>2025-09-29T16:41:49.843Z</time>
      </trkpt>
      <trkpt lat="51.936955" lon="8.876774">
        <ele>137.087675</ele>
        <time>2025-09-29T16:41:54.791Z</time>
      </trkpt>
      <trkpt lat="51.936884" lon="8.876489">
        <ele>137.133385</ele>
        <time>2025-09-29T16:42:00.067Z</time>
      </trkpt>
      <trkpt lat="51.936861" lon="8.876399">
        <ele>137.147873</ele>
        <time>2025-09-29T16:42:01.748Z</time>
      </trkpt>
      <trkpt lat="51.936817" lon="8.876228">
        <ele>137.175427</ele>
        <time>2025-09-29T16:42:04.907Z</time>
      </trkpt>
      <trkpt lat="51.936746" lon="8.876004">
        <ele>137.212882</ele>
        <time>2025-09-29T16:42:09.190Z</time>
      </trkpt>
      <trkpt lat="51.936613" lon="8.875904">
        <ele>137.248240</ele>
        <time>2025-09-29T16:42:13.198Z</time>
      </trkpt>
      <trkpt lat="51.936539" lon="8.875848">
        <ele>137.267936</ele>
        <time>2025-09-29T16:42:15.462Z</time>
      </trkpt>
      <trkpt lat="51.936231" lon="8.875741">
        <ele>137.343910</ele>
        <time>2025-09-29T16:42:24.039Z</time>
      </trkpt>
      <trkpt lat="51.935952" lon="8.875703">
        <ele>137.411441</ele>
        <time>2025-09-29T16:42:31.784Z</time>
      </trkpt>
      <trkpt lat="51.935855" lon="8.875632">
        <ele>137.437109</ele>
        <time>2025-09-29T16:42:34.767Z</time>
      </trkpt>
      <trkpt lat="51.935888" lon="8.875506">
        <ele>137.457467</ele>
        <time>2025-09-29T16:42:37.125Z</time>
      </trkpt>
      <trkpt lat="51.935907" lon="8.875417">
        <ele>137.471473</ele>
        <time>2025-09-29T16:42:38.746Z</time>
      </trkpt>
      <trkpt lat="51.935063" lon="8.875282">
        <ele>137.913642</ele>
        <time>2025-09-29T16:43:02.367Z</time>
      </trkpt>
      <trkpt lat="51.934947" lon="8.875285">
        <ele>137.974260</ele>
        <time>2025-09-29T16:43:05.626Z</time>
      </trkpt>
      <trkpt lat="51.934734" lon="8.875323">
        <ele>138.086223</ele>
        <time>2025-09-29T16:43:11.588Z</time>
      </trkpt>
      <trkpt lat="51.934412" lon="8.875402">
        <ele>138.256380</ele>
        <time>2025-09-29T16:43:20.697Z</time>
      </trkpt>
      <trkpt lat="51.934201" lon="8.875525">
        <ele>138.373532</ele>
        <time>2025-09-29T16:43:26.926Z</time>
      </trkpt>
      <trkpt lat="51.934002" lon="8.875718">
        <ele>138.457119</ele>
        <time>2025-09-29T16:43:33.387Z</time>
      </trkpt>
      <trkpt lat="51.933836" lon="8.875956">
        <ele>138.520243</ele>
        <time>2025-09-29T16:43:39.551Z</time>
      </trkpt>
      <trkpt lat="51.933586" lon="8.876425">
        <ele>138.629149</ele>
        <time>2025-09-29T16:43:50.209Z</time>
      </trkpt>
      <trkpt lat="51.933559" lon="8.876487">
        <ele>138.642482</ele>
        <time>2025-09-29T16:43:51.519Z</time>
      </trkpt>
      <trkpt lat="51.933570" lon="8.876595">
        <ele>138.661711</ele>
        <time>2025-09-29T16:43:53.392Z</time>
      </trkpt>
      <trkpt lat="51.933561" lon="8.876615">
        <ele>138.666061</ele>
        <time>2025-09-29T16:43:53.829Z</time>
      </trkpt>
      <trkpt lat="51.933555" lon="8.876630">
        <ele>138.669201</ele>
        <time>2025-09-29T16:43:54.120Z</time>
      </trkpt>
      <trkpt lat="51.933550" lon="8.876641">
        <ele>138.671602</ele>
        <time>2025-09-29T16:43:54.360Z</time>
      </trkpt>
      <trkpt lat="51.933270" lon="8.877192">
        <ele>138.797030</ele>
        <time>2025-09-29T16:44:06.559Z</time>
      </trkpt>
      <trkpt lat="51.933185" lon="8.877312">
        <ele>138.829136</ele>
        <time>2025-09-29T16:44:09.656Z</time>
      </trkpt>
      <trkpt lat="51.933106" lon="8.877352">
        <ele>138.852715</ele>
        <time>2025-09-29T16:44:11.936Z</time>
      </trkpt>
      <trkpt lat="51.933048" lon="8.877310">
        <ele>138.870811</ele>
        <time>2025-09-29T16:44:13.413Z</time>
      </trkpt>
      <trkpt lat="51.933084" lon="8.877175">
        <ele>138.896649</ele>
        <time>2025-09-29T16:44:15.296Z</time>
      </trkpt>
      <trkpt lat="51.933022" lon="8.877132">
        <ele>138.915860</ele>
        <time>2025-09-29T16:44:16.716Z</time>
      </trkpt>
      <trkpt lat="51.932820" lon="8.876972">
        <ele>138.979253</ele>
        <time>2025-09-29T16:44:21.420Z</time>
      </trkpt>
      <trkpt lat="51.932779" lon="8.876935">
        <ele>138.992463</ele>
        <time>2025-09-29T16:44:22.420Z</time>
      </trkpt>
      <trkpt lat="51.932731" lon="8.876892">
        <ele>139.007901</ele>
        <time>2025-09-29T16:44:23.593Z</time>
      </trkpt>
      <trkpt lat="51.932527" lon="8.876711">
        <ele>139.073367</ele>
        <time>2025-09-29T16:44:28.539Z</time>
      </trkpt>
      <trkpt lat="51.932178" lon="8.876395">
        <ele>139.185899</ele>
        <time>2025-09-29T16:44:37.045Z</time>
      </trkpt>
      <trkpt lat="51.931956" lon="8.876199">
        <ele>139.257061</ele>
        <time>2025-09-29T16:44:42.431Z</time>
      </trkpt>
      <trkpt lat="51.931127" lon="8.875466">
        <ele>139.970270</ele>
        <time>2025-09-29T16:45:03.227Z</time>
      </trkpt>
      <trkpt lat="51.930819" lon="8.875201">
        <ele>140.545830</ele>
        <time>2025-09-29T16:45:11.182Z</time>
      </trkpt>
      <trkpt lat="51.930655" lon="8.875056">
        <ele>140.854176</ele>
        <time>2025-09-29T16:45:15.522Z</time>
      </trkpt>
      <trkpt lat="51.930363" lon="8.874800">
        <ele>141.402129</ele>
        <time>2025-09-29T16:45:23.303Z</time>
      </trkpt>
      <trkpt lat="51.930100" lon="8.874276">
        <ele>142.089867</ele>
        <time>2025-09-29T16:45:33.134Z</time>
      </trkpt>
      <trkpt lat="51.930063" lon="8.874196">
        <ele>142.191660</ele>
        <time>2025-09-29T16:45:34.695Z</time>
      </trkpt>
      <trkpt lat="51.929949" lon="8.873954">
        <ele>142.484516</ele>
        <time>2025-09-29T16:45:39.450Z</time>
      </trkpt>
      <trkpt lat="51.929858" lon="8.873752">
        <ele>142.696212</ele>
        <time>2025-09-29T16:45:43.349Z</time>
      </trkpt>
      <trkpt lat="51.929755" lon="8.873553">
        <ele>142.916071</ele>
        <time>2025-09-29T16:45:47.395Z</time>
      </trkpt>
      <trkpt lat="51.929074" lon="8.872704">
        <ele>144.094875</ele>
        <time>2025-09-29T16:46:07.720Z</time>
      </trkpt>
      <trkpt lat="51.929025" lon="8.872647">
        <ele>144.177630</ele>
        <time>2025-09-29T16:46:09.421Z</time>
      </trkpt>
      <trkpt lat="51.926979" lon="8.870185">
        <ele>146.055413</ele>
        <time>2025-09-29T16:47:20.366Z</time>
      </trkpt>
      <trkpt lat="51.927012" lon="8.870113">
        <ele>146.108158</ele>
        <time>2025-09-29T16:47:21.924Z</time>
      </trkpt>
      <trkpt lat="51.927213" lon="8.869685">
        <ele>146.424469</ele>
        <time>2025-09-29T16:47:29.537Z</time>
      </trkpt>
      <trkpt lat="51.927242" lon="8.869587">
        <ele>146.488380</ele>
        <time>2025-09-29T16:47:31.067Z</time>
      </trkpt>
      <trkpt lat="51.927247" lon="8.869420">
        <ele>146.586684</ele>
        <time>2025-09-29T16:47:33.403Z</time>
      </trkpt>
      <trkpt lat="51.927050" lon="8.868766">
        <ele>147.014631</ele>
        <time>2025-09-29T16:47:43.471Z</time>
      </trkpt>
      <trkpt lat="51.927006" lon="8.868608">
        <ele>147.116562</ele>
        <time>2025-09-29T16:47:45.891Z</time>
      </trkpt>
      <trkpt lat="51.926797" lon="8.868166">
        <ele>147.444046</ele>
        <time>2025-09-29T16:47:53.689Z</time>
      </trkpt>
      <trkpt lat="51.926653" lon="8.867959">
        <ele>147.639316</ele>
        <time>2025-09-29T16:47:57.992Z</time>
      </trkpt>
      <trkpt lat="51.926412" lon="8.867865">
        <ele>147.906113</ele>
        <time>2025-09-29T16:48:03.341Z</time>
      </trkpt>
      <trkpt lat="51.925430" lon="8.866710">
        <ele>149.211842</ele>
        <time>2025-09-29T16:48:30.765Z</time>
      </trkpt>
      <trkpt lat="51.925233" lon="8.866566">
        <ele>149.444429</ele>
        <time>2025-09-29T16:48:35.781Z</time>
      </trkpt>
      <trkpt lat="51.924595" lon="8.865942">
        <ele>149.369565</ele>
        <time>2025-09-29T16:48:52.692Z</time>
      </trkpt>
      <trkpt lat="51.924058" lon="8.865272">
        <ele>149.273118</ele>
        <time>2025-09-29T16:49:06.288Z</time>
      </trkpt>
      <trkpt lat="51.923751" lon="8.864962">
        <ele>149.221638</ele>
        <time>2025-09-29T16:49:12.800Z</time>
      </trkpt>
      <trkpt lat="51.923648" lon="8.864562">
        <ele>149.075228</ele>
        <time>2025-09-29T16:49:17.511Z</time>
      </trkpt>
      <trkpt lat="51.923522" lon="8.864189">
        <ele>148.912904</ele>
        <time>2025-09-29T16:49:22.210Z</time>
      </trkpt>
      <trkpt lat="51.923510" lon="8.864149">
        <ele>148.895926</ele>
        <time>2025-09-29T16:49:22.709Z</time>
      </trkpt>
      <trkpt lat="51.923421" lon="8.863846">
        <ele>148.767830</ele>
        <time>2025-09-29T16:49:26.512Z</time>
      </trkpt>
      <trkpt lat="51.923221" lon="8.863763">
        <ele>148.640061</ele>
        <time>2025-09-29T16:49:30.485Z</time>
      </trkpt>
      <trkpt lat="51.923186" lon="8.863732">
        <ele>148.615379</ele>
        <time>2025-09-29T16:49:31.273Z</time>
      </trkpt>
      <trkpt lat="51.923025" lon="8.863240">
        <ele>148.402793</ele>
        <time>2025-09-29T16:49:38.217Z</time>
      </trkpt>
      <trkpt lat="51.922869" lon="8.862717">
        <ele>148.181050</ele>
        <time>2025-09-29T16:49:45.979Z</time>
      </trkpt>
      <trkpt lat="51.922821" lon="8.862652">
        <ele>148.142346</ele>
        <time>2025-09-29T16:49:47.357Z</time>
      </trkpt>
      <trkpt lat="51.922753" lon="8.862457">
        <ele>148.217631</ele>
        <time>2025-09-29T16:49:50.474Z</time>
      </trkpt>
      <trkpt lat="51.922667" lon="8.862252">
        <ele>148.454194</ele>
        <time>2025-09-29T16:49:53.961Z</time>
      </trkpt>
      <trkpt lat="51.922539" lon="8.862093">
        <ele>148.703657</ele>
        <time>2025-09-29T16:49:57.703Z</time>
      </trkpt>
      <trkpt lat="51.921815" lon="8.861417">
        <ele>149.996209</ele>
        <time>2025-09-29T16:50:17.029Z</time>
      </trkpt>
      <trkpt lat="51.921421" lon="8.861085">
        <ele>150.683173</ele>
        <time>2025-09-29T16:50:27.185Z</time>
      </trkpt>
      <trkpt lat="51.921026" lon="8.860919">
        <ele>151.650907</ele>
        <time>2025-09-29T16:50:36.770Z</time>
      </trkpt>
      <trkpt lat="51.920935" lon="8.860898">
        <ele>151.904640</ele>
        <time>2025-09-29T16:50:38.938Z</time>
      </trkpt>
      <trkpt lat="51.920971" lon="8.860440">
        <ele>152.690692</ele>
        <time>2025-09-29T16:50:45.730Z</time>
      </trkpt>
      <trkpt lat="51.920979" lon="8.860321">
        <ele>152.894490</ele>
        <time>2025-09-29T16:50:47.519Z</time>
      </trkpt>
      <trkpt lat="51.920998" lon="8.860059">
        <ele>153.343617</ele>
        <time>2025-09-29T16:50:51.424Z</time>
      </trkpt>
      <trkpt lat="51.921009" lon="8.859919">
        <ele>153.583894</ele>
        <time>2025-09-29T16:50:53.516Z</time>
      </trkpt>
      <trkpt lat="51.921030" lon="8.859639">
        <ele>154.064105</ele>
        <time>2025-09-29T16:50:57.714Z</time>
      </trkpt>
      <trkpt lat="51.921048" lon="8.859393">
        <ele>154.485856</ele>
        <time>2025-09-29T16:51:01.443Z</time>
      </trkpt>
      <trkpt lat="51.921108" lon="8.858579">
        <ele>155.885372</ele>
        <time>2025-09-29T16:51:14.027Z</time>
      </trkpt>
      <trkpt lat="51.921128" lon="8.858303">
        <ele>156.416830</ele>
        <time>2025-09-29T16:51:18.286Z</time>
      </trkpt>
      <trkpt lat="51.921308" lon="8.855963">
        <ele>160.926554</ele>
        <time>2025-09-29T16:51:53.370Z</time>
      </trkpt>
      <trkpt lat="51.921612" lon="8.856060">
        <ele>162.030005</ele>
        <time>2025-09-29T16:52:00.976Z</time>
      </trkpt>
      <trkpt lat="51.921687" lon="8.856094">
        <ele>162.346497</ele>
        <time>2025-09-29T16:52:02.924Z</time>
      </trkpt>
      <trkpt lat="51.921827" lon="8.856120">
        <ele>162.919182</ele>
        <time>2025-09-29T16:52:06.435Z</time>
      </trkpt>
      <trkpt lat="51.921959" lon="8.855309">
        <ele>165.021498</ele>
        <time>2025-09-29T16:52:20.394Z</time>
      </trkpt>
      <trkpt lat="51.922207" lon="8.854579">
        <ele>167.110419</ele>
        <time>2025-09-29T16:52:34.462Z</time>
      </trkpt>
      <trkpt lat="51.922455" lon="8.854019">
        <ele>168.840541</ele>
        <time>2025-09-29T16:52:46.283Z</time>
      </trkpt>
      <trkpt lat="51.922550" lon="8.853910">
        <ele>169.323590</ele>
        <time>2025-09-29T16:52:49.451Z</time>
      </trkpt>
      <trkpt lat="51.922621" lon="8.853898">
        <ele>169.619884</ele>
        <time>2025-09-29T16:52:51.389Z</time>
      </trkpt>
      <trkpt lat="51.922695" lon="8.853934">
        <ele>169.940560</ele>
        <time>2025-09-29T16:52:53.474Z</time>
      </trkpt>
      <trkpt lat="51.922915" lon="8.853186">
        <ele>172.061896</ele>
        <time>2025-09-29T16:53:10.858Z</time>
      </trkpt>
      <trkpt lat="51.922976" lon="8.853079">
        <ele>172.434893</ele>
        <time>2025-09-29T16:53:13.905Z</time>
      </trkpt>
      <trkpt lat="51.923047" lon="8.852654">
        <ele>173.562015</ele>
        <time>2025-09-29T16:53:23.133Z</time>
      </trkpt>
      <trkpt lat="51.923293" lon="8.852163">
        <ele>175.181356</ele>
        <time>2025-09-29T16:53:33.078Z</time>
      </trkpt>
      <trkpt lat="51.923631" lon="8.851657">
        <ele>177.084893</ele>
        <time>2025-09-29T16:53:45.106Z</time>
      </trkpt>
      <trkpt lat="51.923713" lon="8.851573">
        <ele>177.484813</ele>
        <time>2025-09-29T16:53:47.664Z</time>
      </trkpt>
      <trkpt lat="51.924267" lon="8.851182">
        <ele>179.976052</ele>
        <time>2025-09-29T16:54:03.760Z</time>
      </trkpt>
      <trkpt lat="51.924364" lon="8.850881">
        <ele>180.839625</ele>
        <time>2025-09-29T16:54:09.260Z</time>
      </trkpt>
      <trkpt lat="51.924607" lon="8.850197">
        <ele>182.846829</ele>
        <time>2025-09-29T16:54:21.580Z</time>
      </trkpt>
      <trkpt lat="51.924621" lon="8.850156">
        <ele>182.965997</ele>
        <time>2025-09-29T16:54:22.302Z</time>
      </trkpt>
      <trkpt lat="51.924819" lon="8.849598">
        <ele>183.802377</ele>
        <time>2025-09-29T16:54:31.812Z</time>
      </trkpt>
      <trkpt lat="51.924885" lon="8.849412">
        <ele>183.903932</ele>
        <time>2025-09-29T16:54:34.911Z</time>
      </trkpt>
      <trkpt lat="51.924955" lon="8.849216">
        <ele>184.011121</ele>
        <time>2025-09-29T16:54:38.126Z</time>
      </trkpt>
      <trkpt lat="51.925001" lon="8.849154">
        <ele>184.057023</ele>
        <time>2025-09-29T16:54:39.491Z</time>
      </trkpt>
      <trkpt lat="51.925192" lon="8.848943">
        <ele>184.234377</ele>
        <time>2025-09-29T16:54:44.721Z</time>
      </trkpt>
      <trkpt lat="51.925276" lon="8.848851">
        <ele>184.312165</ele>
        <time>2025-09-29T16:54:46.961Z</time>
      </trkpt>
      <trkpt lat="51.925790" lon="8.848429">
        <ele>184.754281</ele>
        <time>2025-09-29T16:54:59.183Z</time>
      </trkpt>
      <trkpt lat="51.926163" lon="8.848112">
        <ele>184.823861</ele>
        <time>2025-09-29T16:55:07.402Z</time>
      </trkpt>
      <trkpt lat="51.926372" lon="8.847925">
        <ele>184.410557</ele>
        <time>2025-09-29T16:55:11.814Z</time>
      </trkpt>
      <trkpt lat="51.926419" lon="8.847767">
        <ele>184.223251</ele>
        <time>2025-09-29T16:55:13.779Z</time>
      </trkpt>
      <trkpt lat="51.926840" lon="8.846478">
        <ele>182.665819</ele>
        <time>2025-09-29T16:55:30.549Z</time>
      </trkpt>
      <trkpt lat="51.927066" lon="8.845834">
        <ele>181.870195</ele>
        <time>2025-09-29T16:55:38.849Z</time>
      </trkpt>
      <trkpt lat="51.927141" lon="8.845417">
        <ele>181.212102</ele>
        <time>2025-09-29T16:55:43.722Z</time>
      </trkpt>
      <trkpt lat="51.927194" lon="8.845481">
        <ele>181.049754</ele>
        <time>2025-09-29T16:55:45.017Z</time>
      </trkpt>
      <trkpt lat="51.927422" lon="8.844366">
        <ele>179.270044</ele>
        <time>2025-09-29T16:55:58.690Z</time>
      </trkpt>
      <trkpt lat="51.927464" lon="8.844164">
        <ele>178.947081</ele>
        <time>2025-09-29T16:56:01.151Z</time>
      </trkpt>
      <trkpt lat="51.927458" lon="8.844022">
        <ele>178.731443</ele>
        <time>2025-09-29T16:56:02.811Z</time>
      </trkpt>
      <trkpt lat="51.927748" lon="8.842880">
        <ele>177.012337</ele>
        <time>2025-09-29T16:56:15.847Z</time>
      </trkpt>
      <trkpt lat="51.927724" lon="8.842801">
        <ele>176.912381</ele>
        <time>2025-09-29T16:56:16.812Z</time>
      </trkpt>
      <trkpt lat="51.927720" lon="8.841693">
        <ele>175.654771</ele>
        <time>2025-09-29T16:56:29.074Z</time>
      </trkpt>
      <trkpt lat="51.927763" lon="8.841364">
        <ele>175.273058</ele>
        <time>2025-09-29T16:56:32.891Z</time>
      </trkpt>
      <trkpt lat="51.927807" lon="8.841090">
        <ele>174.951695</ele>
        <time>2025-09-29T16:56:36.181Z</time>
      </trkpt>
      <trkpt lat="51.927912" lon="8.840585">
        <ele>174.346813</ele>
        <time>2025-09-29T16:56:42.343Z</time>
      </trkpt>
      <trkpt lat="51.927975" lon="8.840233">
        <ele>173.817461</ele>
        <time>2025-09-29T16:56:46.410Z</time>
      </trkpt>
      <trkpt lat="51.928267" lon="8.838953">
        <ele>171.488047</ele>
        <time>2025-09-29T16:57:00.813Z</time>
      </trkpt>
      <trkpt lat="51.928321" lon="8.838849">
        <ele>171.255994</ele>
        <time>2025-09-29T16:57:02.153Z</time>
      </trkpt>
      <trkpt lat="51.928290" lon="8.838756">
        <ele>171.075555</ele>
        <time>2025-09-29T16:57:03.170Z</time>
      </trkpt>
      <trkpt lat="51.928098" lon="8.838751">
        <ele>170.544056</ele>
        <time>2025-09-29T16:57:06.207Z</time>
      </trkpt>
      <trkpt lat="51.927935" lon="8.838681">
        <ele>170.077342</ele>
        <time>2025-09-29T16:57:08.833Z</time>
      </trkpt>
      <trkpt lat="51.928088" lon="8.838186">
        <ele>169.179574</ele>
        <time>2025-09-29T16:57:14.239Z</time>
      </trkpt>
      <trkpt lat="51.928227" lon="8.837735">
        <ele>169.221498</ele>
        <time>2025-09-29T16:57:19.348Z</time>
      </trkpt>
      <trkpt lat="51.928298" lon="8.837626">
        <ele>169.234681</ele>
        <time>2025-09-29T16:57:21.011Z</time>
      </trkpt>
      <trkpt lat="51.928498" lon="8.837406">
        <ele>169.267268</ele>
        <time>2025-09-29T16:57:25.245Z</time>
      </trkpt>
      <trkpt lat="51.928577" lon="8.837274">
        <ele>169.282563</ele>
        <time>2025-09-29T16:57:27.270Z</time>
      </trkpt>
      <trkpt lat="51.928618" lon="8.837141">
        <ele>169.294927</ele>
        <time>2025-09-29T16:57:28.949Z</time>
      </trkpt>
      <trkpt lat="51.928783" lon="8.836525">
        <ele>169.350771</ele>
        <time>2025-09-29T16:57:38.123Z</time>
      </trkpt>
      <trkpt lat="51.928797" lon="8.836472">
        <ele>169.355565</ele>
        <time>2025-09-29T16:57:38.965Z</time>
      </trkpt>
      <trkpt lat="51.928842" lon="8.836306">
        <ele>169.370642</ele>
        <time>2025-09-29T16:57:41.601Z</time>
      </trkpt>
      <trkpt lat="51.929027" lon="8.835610">
        <ele>169.898228</ele>
        <time>2025-09-29T16:57:53.512Z</time>
      </trkpt>
      <trkpt lat="51.929166" lon="8.835084">
        <ele>171.553229</ele>
        <time>2025-09-29T16:58:03.333Z</time>
      </trkpt>
      <trkpt lat="51.929269" lon="8.834705">
        <ele>172.751029</ele>
        <time>2025-09-29T16:58:10.459Z</time>
      </trkpt>
      <trkpt lat="51.929282" lon="8.834661">
        <ele>172.892130</ele>
        <time>2025-09-29T16:58:11.357Z</time>
      </trkpt>
      <trkpt lat="51.929296" lon="8.834608">
        <ele>173.058877</ele>
        <time>2025-09-29T16:58:12.382Z</time>
      </trkpt>
      <trkpt lat="51.929590" lon="8.833497">
        <ele>176.555249</ele>
        <time>2025-09-29T16:58:32.594Z</time>
      </trkpt>
      <trkpt lat="51.929645" lon="8.833360">
        <ele>177.028021</ele>
        <time>2025-09-29T16:58:35.104Z</time>
      </trkpt>
      <trkpt lat="51.930035" lon="8.831925">
        <ele>180.081250</ele>
        <time>2025-09-29T16:58:58.777Z</time>
      </trkpt>
      <trkpt lat="51.930032" lon="8.831819">
        <ele>180.265464</ele>
        <time>2025-09-29T16:59:00.339Z</time>
      </trkpt>
      <trkpt lat="51.929970" lon="8.829658">
        <ele>183.248808</ele>
        <time>2025-09-29T16:59:31.854Z</time>
      </trkpt>
      <trkpt lat="51.929958" lon="8.829213">
        <ele>183.479996</ele>
        <time>2025-09-29T16:59:38.135Z</time>
      </trkpt>
      <trkpt lat="51.929947" lon="8.828838">
        <ele>183.674851</ele>
        <time>2025-09-29T16:59:43.329Z</time>
      </trkpt>
      <trkpt lat="51.929949" lon="8.828174">
        <ele>184.019488</ele>
        <time>2025-09-29T16:59:52.331Z</time>
      </trkpt>
      <trkpt lat="51.929950" lon="8.827898">
        <ele>184.162741</ele>
        <time>2025-09-29T16:59:55.968Z</time>
      </trkpt>
      <trkpt lat="51.929944" lon="8.827794">
        <ele>184.216956</ele>
        <time>2025-09-29T16:59:57.345Z</time>
      </trkpt>
      <trkpt lat="51.929930" lon="8.827508">
        <ele>184.365864</ele>
        <time>2025-09-29T17:00:00.976Z</time>
      </trkpt>
      <trkpt lat="51.929848" lon="8.827245">
        <ele>184.334397</ele>
        <time>2025-09-29T17:00:04.585Z</time>
      </trkpt>
      <trkpt lat="51.929755" lon="8.827117">
        <ele>184.215426</ele>
        <time>2025-09-29T17:00:06.977Z</time>
      </trkpt>
      <trkpt lat="51.929702" lon="8.827095">
        <ele>184.162065</ele>
        <time>2025-09-29T17:00:08.013Z</time>
      </trkpt>
      <trkpt lat="51.929615" lon="8.826983">
        <ele>184.053724</ele>
        <time>2025-09-29T17:00:10.131Z</time>
      </trkpt>
      <trkpt lat="51.929415" lon="8.826473">
        <ele>183.690218</ele>
        <time>2025-09-29T17:00:17.178Z</time>
      </trkpt>
      <trkpt lat="51.929394" lon="8.826396">
        <ele>183.639580</ele>
        <time>2025-09-29T17:00:18.187Z</time>
      </trkpt>
      <trkpt lat="51.928968" lon="8.827298">
        <ele>182.956248</ele>
        <time>2025-09-29T17:00:31.380Z</time>
      </trkpt>
      <trkpt lat="51.928256" lon="8.828259">
        <ele>182.823607</ele>
        <time>2025-09-29T17:00:49.565Z</time>
      </trkpt>
      <trkpt lat="51.927956" lon="8.828680">
        <ele>182.912896</ele>
        <time>2025-09-29T17:00:58.349Z</time>
      </trkpt>
      <trkpt lat="51.927025" lon="8.829982">
        <ele>183.419560</ele>
        <time>2025-09-29T17:01:26.018Z</time>
      </trkpt>
      <trkpt lat="51.926883" lon="8.830119">
        <ele>183.537658</ele>
        <time>2025-09-29T17:01:29.702Z</time>
      </trkpt>
      <trkpt lat="51.926292" lon="8.830439">
        <ele>183.982996</ele>
        <time>2025-09-29T17:01:43.453Z</time>
      </trkpt>
      <trkpt lat="51.926191" lon="8.830483">
        <ele>184.057745</ele>
        <time>2025-09-29T17:01:45.728Z</time>
      </trkpt>
      <trkpt lat="51.925881" lon="8.830655">
        <ele>184.291927</ele>
        <time>2025-09-29T17:01:52.868Z</time>
      </trkpt>
      <trkpt lat="51.925397" lon="8.830895">
        <ele>184.928637</ele>
        <time>2025-09-29T17:02:03.953Z</time>
      </trkpt>
      <trkpt lat="51.924675" lon="8.831275">
        <ele>185.996050</ele>
        <time>2025-09-29T17:02:21.354Z</time>
      </trkpt>
      <trkpt lat="51.924511" lon="8.831357">
        <ele>186.237380</ele>
        <time>2025-09-29T17:02:25.345Z</time>
      </trkpt>
      <trkpt lat="51.924419" lon="8.831428">
        <ele>186.380655</ele>
        <time>2025-09-29T17:02:27.745Z</time>
      </trkpt>
      <trkpt lat="51.924393" lon="8.831528">
        <ele>186.474767</ele>
        <time>2025-09-29T17:02:29.303Z</time>
      </trkpt>
      <trkpt lat="51.924198" lon="8.831455">
        <ele>186.756188</ele>
        <time>2025-09-29T17:02:33.988Z</time>
      </trkpt>
      <trkpt lat="51.924252" lon="8.831382">
        <ele>186.855050</ele>
        <time>2025-09-29T17:02:35.610Z</time>
      </trkpt>
      <trkpt lat="51.924280" lon="8.831253">
        <ele>187.029720</ele>
        <time>2025-09-29T17:02:37.582Z</time>
      </trkpt>
      <trkpt lat="51.924374" lon="8.830868">
        <ele>187.657451</ele>
        <time>2025-09-29T17:02:43.502Z</time>
      </trkpt>
      <trkpt lat="51.924505" lon="8.830304">
        <ele>188.571095</ele>
        <time>2025-09-29T17:02:52.305Z</time>
      </trkpt>
      <trkpt lat="51.924556" lon="8.830095">
        <ele>188.911836</ele>
        <time>2025-09-29T17:02:55.658Z</time>
      </trkpt>
      <trkpt lat="51.924649" lon="8.829679">
        <ele>189.582640</ele>
        <time>2025-09-29T17:03:02.391Z</time>
      </trkpt>
      <trkpt lat="51.924590" lon="8.829341">
        <ele>190.115169</ele>
        <time>2025-09-29T17:03:07.720Z</time>
      </trkpt>
      <trkpt lat="51.924541" lon="8.829063">
        <ele>190.553486</ele>
        <time>2025-09-29T17:03:12.037Z</time>
      </trkpt>
      <trkpt lat="51.924486" lon="8.828744">
        <ele>191.055627</ele>
        <time>2025-09-29T17:03:16.876Z</time>
      </trkpt>
      <trkpt lat="51.924476" lon="8.828689">
        <ele>191.142554</ele>
        <time>2025-09-29T17:03:17.694Z</time>
      </trkpt>
      <trkpt lat="51.924422" lon="8.828392">
        <ele>191.465613</ele>
        <time>2025-09-29T17:03:22.108Z</time>
      </trkpt>
      <trkpt lat="51.924378" lon="8.828131">
        <ele>191.670094</ele>
        <time>2025-09-29T17:03:25.947Z</time>
      </trkpt>
      <trkpt lat="51.924325" lon="8.827843">
        <ele>191.897226</ele>
        <time>2025-09-29T17:03:30.224Z</time>
      </trkpt>
      <trkpt lat="51.924268" lon="8.827530">
        <ele>192.143866</ele>
        <time>2025-09-29T17:03:34.881Z</time>
      </trkpt>
      <trkpt lat="51.924222" lon="8.827269">
        <ele>192.349007</ele>
        <time>2025-09-29T17:03:38.732Z</time>
      </trkpt>
      <trkpt lat="51.924130" lon="8.826753">
        <ele>192.754933</ele>
        <time>2025-09-29T17:03:46.280Z</time>
      </trkpt>
      <trkpt lat="51.924087" lon="8.826514">
        <ele>192.943082</ele>
        <time>2025-09-29T17:03:49.699Z</time>
      </trkpt>
      <trkpt lat="51.924083" lon="8.826491">
        <ele>192.961141</ele>
        <time>2025-09-29T17:03:50.017Z</time>
      </trkpt>
      <trkpt lat="51.923948" lon="8.826125">
        <ele>193.283436</ele>
        <time>2025-09-29T17:03:55.687Z</time>
      </trkpt>
      <trkpt lat="51.923297" lon="8.823894">
        <ele>192.561760</ele>
        <time>2025-09-29T17:04:28.449Z</time>
      </trkpt>
      <trkpt lat="51.923221" lon="8.823577">
        <ele>192.409464</ele>
        <time>2025-09-29T17:04:32.387Z</time>
      </trkpt>
      <trkpt lat="51.922629" lon="8.820068">
        <ele>185.353831</ele>
        <time>2025-09-29T17:05:07.745Z</time>
      </trkpt>
      <trkpt lat="51.922464" lon="8.819249">
        <ele>184.252070</ele>
        <time>2025-09-29T17:05:16.489Z</time>
      </trkpt>
      <trkpt lat="51.922402" lon="8.819048">
        <ele>183.964685</ele>
        <time>2025-09-29T17:05:18.863Z</time>
      </trkpt>
      <trkpt lat="51.922221" lon="8.818537">
        <ele>183.211135</ele>
        <time>2025-09-29T17:05:25.343Z</time>
      </trkpt>
      <trkpt lat="51.921486" lon="8.817010">
        <ele>181.905317</ele>
        <time>2025-09-29T17:05:49.323Z</time>
      </trkpt>
      <trkpt lat="51.921279" lon="8.816408">
        <ele>181.838686</ele>
        <time>2025-09-29T17:05:58.302Z</time>
      </trkpt>
      <trkpt lat="51.921182" lon="8.815996">
        <ele>181.796053</ele>
        <time>2025-09-29T17:06:04.098Z</time>
      </trkpt>
      <trkpt lat="51.921115" lon="8.815539">
        <ele>181.750642</ele>
        <time>2025-09-29T17:06:10.307Z</time>
      </trkpt>
      <trkpt lat="51.920870" lon="8.812286">
        <ele>182.031336</ele>
        <time>2025-09-29T17:06:53.557Z</time>
      </trkpt>
      <trkpt lat="51.920857" lon="8.812123">
        <ele>182.027443</ele>
        <time>2025-09-29T17:06:55.759Z</time>
      </trkpt>
      <trkpt lat="51.920692" lon="8.809574">
        <ele>181.966736</ele>
        <time>2025-09-29T17:07:29.607Z</time>
      </trkpt>
      <trkpt lat="51.920736" lon="8.809505">
        <ele>181.964385</ele>
        <time>2025-09-29T17:07:30.969Z</time>
      </trkpt>
      <trkpt lat="51.920840" lon="8.809120">
        <ele>181.519056</ele>
        <time>2025-09-29T17:07:36.640Z</time>
      </trkpt>
      <trkpt lat="51.920936" lon="8.808902">
        <ele>181.193894</ele>
        <time>2025-09-29T17:07:40.118Z</time>
      </trkpt>
      <trkpt lat="51.921048" lon="8.808540">
        <ele>180.702272</ele>
        <time>2025-09-29T17:07:45.217Z</time>
      </trkpt>
      <trkpt lat="51.921307" lon="8.808026">
        <ele>179.896565</ele>
        <time>2025-09-29T17:07:53.248Z</time>
      </trkpt>
      <trkpt lat="51.922290" lon="8.806469">
        <ele>176.903884</ele>
        <time>2025-09-29T17:08:19.096Z</time>
      </trkpt>
      <trkpt lat="51.922573" lon="8.805910">
        <ele>175.820643</ele>
        <time>2025-09-29T17:08:27.530Z</time>
      </trkpt>
      <trkpt lat="51.922586" lon="8.805902">
        <ele>175.786874</ele>
        <time>2025-09-29T17:08:27.802Z</time>
      </trkpt>
      <trkpt lat="51.922616" lon="8.805884">
        <ele>175.709187</ele>
        <time>2025-09-29T17:08:28.410Z</time>
      </trkpt>
      <trkpt lat="51.922719" lon="8.805739">
        <ele>175.377914</ele>
        <time>2025-09-29T17:08:31.047Z</time>
      </trkpt>
      <trkpt lat="51.922892" lon="8.805328">
        <ele>174.632607</ele>
        <time>2025-09-29T17:08:37.125Z</time>
      </trkpt>
      <trkpt lat="51.922875" lon="8.805384">
        <ele>174.539120</ele>
        <time>2025-09-29T17:08:38.114Z</time>
      </trkpt>
      <trkpt lat="51.922948" lon="8.805205">
        <ele>174.217699</ele>
        <time>2025-09-29T17:08:41.537Z</time>
      </trkpt>
      <trkpt lat="51.923049" lon="8.805058">
        <ele>173.942225</ele>
        <time>2025-09-29T17:08:45.047Z</time>
      </trkpt>
      <trkpt lat="51.923149" lon="8.804912">
        <ele>173.721591</ele>
        <time>2025-09-29T17:08:48.527Z</time>
      </trkpt>
      <trkpt lat="51.923237" lon="8.804766">
        <ele>173.515159</ele>
        <time>2025-09-29T17:08:51.783Z</time>
      </trkpt>
      <trkpt lat="51.923324" lon="8.804614">
        <ele>173.305465</ele>
        <time>2025-09-29T17:08:55.091Z</time>
      </trkpt>
      <trkpt lat="51.923414" lon="8.804470">
        <ele>173.098154</ele>
        <time>2025-09-29T17:08:58.361Z</time>
      </trkpt>
      <trkpt lat="51.923517" lon="8.804358">
        <ele>172.894814</ele>
        <time>2025-09-29T17:09:01.568Z</time>
      </trkpt>
      <trkpt lat="51.923618" lon="8.804254">
        <ele>172.698643</ele>
        <time>2025-09-29T17:09:04.662Z</time>
      </trkpt>
      <trkpt lat="51.923723" lon="8.804149">
        <ele>172.496376</ele>
        <time>2025-09-29T17:09:07.852Z</time>
      </trkpt>
      <trkpt lat="51.923836" lon="8.804068">
        <ele>172.293802</ele>
        <time>2025-09-29T17:09:11.048Z</time>
      </trkpt>
      <trkpt lat="51.923957" lon="8.804019">
        <ele>172.089315</ele>
        <time>2025-09-29T17:09:14.273Z</time>
      </trkpt>
      <trkpt lat="51.924085" lon="8.804019">
        <ele>171.879443</ele>
        <time>2025-09-29T17:09:17.583Z</time>
      </trkpt>
      <trkpt lat="51.924085" lon="8.804020">
        <ele>171.878432</ele>
        <time>2025-09-29T17:09:17.594Z</time>
      </trkpt>
      <trkpt lat="51.924339" lon="8.804001">
        <ele>171.461525</ele>
        <time>2025-09-29T17:09:22.881Z</time>
      </trkpt>
      <trkpt lat="51.924780" lon="8.803649">
        <ele>170.526847</ele>
        <time>2025-09-29T17:09:32.696Z</time>
      </trkpt>
      <trkpt lat="51.925076" lon="8.803520">
        <ele>169.880522</ele>
        <time>2025-09-29T17:09:38.727Z</time>
      </trkpt>
      <trkpt lat="51.925286" lon="8.803514">
        <ele>169.437627</ele>
        <time>2025-09-29T17:09:42.820Z</time>
      </trkpt>
      <trkpt lat="51.925424" lon="8.803595">
        <ele>169.128149</ele>
        <time>2025-09-29T17:09:45.698Z</time>
      </trkpt>
      <trkpt lat="51.925622" lon="8.803774">
        <ele>168.650124</ele>
        <time>2025-09-29T17:09:50.113Z</time>
      </trkpt>
      <trkpt lat="51.925904" lon="8.803970">
        <ele>168.003150</ele>
        <time>2025-09-29T17:09:56.084Z</time>
      </trkpt>
      <trkpt lat="51.925997" lon="8.804058">
        <ele>167.776095</ele>
        <time>2025-09-29T17:09:58.192Z</time>
      </trkpt>
      <trkpt lat="51.926071" lon="8.804189">
        <ele>167.545078</ele>
        <time>2025-09-29T17:10:00.340Z</time>
      </trkpt>
      <trkpt lat="51.926217" lon="8.804297">
        <ele>167.221535</ele>
        <time>2025-09-29T17:10:03.508Z</time>
      </trkpt>
      <trkpt lat="51.926376" lon="8.804219">
        <ele>166.920242</ele>
        <time>2025-09-29T17:10:06.762Z</time>
      </trkpt>
      <trkpt lat="51.926689" lon="8.803954">
        <ele>166.279821</ele>
        <time>2025-09-29T17:10:13.705Z</time>
      </trkpt>
      <trkpt lat="51.926880" lon="8.803850">
        <ele>165.914388</ele>
        <time>2025-09-29T17:10:17.693Z</time>
      </trkpt>
      <trkpt lat="51.927000" lon="8.803693">
        <ele>165.634733</ele>
        <time>2025-09-29T17:10:20.723Z</time>
      </trkpt>
      <trkpt lat="51.927099" lon="8.803765">
        <ele>165.437940</ele>
        <time>2025-09-29T17:10:22.864Z</time>
      </trkpt>
      <trkpt lat="51.927249" lon="8.803781">
        <ele>165.165290</ele>
        <time>2025-09-29T17:10:25.848Z</time>
      </trkpt>
      <trkpt lat="51.927358" lon="8.803751">
        <ele>164.964764</ele>
        <time>2025-09-29T17:10:28.053Z</time>
      </trkpt>
      <trkpt lat="51.927908" lon="8.803921">
        <ele>164.091317</ele>
        <time>2025-09-29T17:10:39.716Z</time>
      </trkpt>
      <trkpt lat="51.927991" lon="8.803896">
        <ele>164.152930</ele>
        <time>2025-09-29T17:10:41.565Z</time>
      </trkpt>
      <trkpt lat="51.928129" lon="8.803783">
        <ele>164.265759</ele>
        <time>2025-09-29T17:10:44.953Z</time>
      </trkpt>
      <trkpt lat="51.928138" lon="8.803734">
        <ele>164.288769</ele>
        <time>2025-09-29T17:10:45.645Z</time>
      </trkpt>
      <trkpt lat="51.928314" lon="8.803802">
        <ele>164.420816</ele>
        <time>2025-09-29T17:10:49.218Z</time>
      </trkpt>
      <trkpt lat="51.928437" lon="8.803612">
        <ele>164.544795</ele>
        <time>2025-09-29T17:10:53.088Z</time>
      </trkpt>
      <trkpt lat="51.928762" lon="8.803696">
        <ele>164.784986</ele>
        <time>2025-09-29T17:11:00.934Z</time>
      </trkpt>
      <trkpt lat="51.928951" lon="8.803042">
        <ele>165.110037</ele>
        <time>2025-09-29T17:11:11.970Z</time>
      </trkpt>
      <trkpt lat="51.929000" lon="8.802870">
        <ele>165.195307</ele>
        <time>2025-09-29T17:11:14.915Z</time>
      </trkpt>
      <trkpt lat="51.929099" lon="8.802327">
        <ele>165.954629</ele>
        <time>2025-09-29T17:11:23.844Z</time>
      </trkpt>
      <trkpt lat="51.929269" lon="8.800779">
        <ele>170.771876</ele>
        <time>2025-09-29T17:11:50.049Z</time>
      </trkpt>
      <trkpt lat="51.929320" lon="8.800246">
        <ele>172.424372</ele>
        <time>2025-09-29T17:12:00.218Z</time>
      </trkpt>
      <trkpt lat="51.929315" lon="8.800048">
        <ele>173.031493</ele>
        <time>2025-09-29T17:12:04.045Z</time>
      </trkpt>
      <trkpt lat="51.929313" lon="8.799949">
        <ele>173.334962</ele>
        <time>2025-09-29T17:12:05.942Z</time>
      </trkpt>
      <trkpt lat="51.929299" lon="8.799197">
        <ele>175.796924</ele>
        <time>2025-09-29T17:12:20.793Z</time>
      </trkpt>
      <trkpt lat="51.929230" lon="8.798779">
        <ele>177.277957</ele>
        <time>2025-09-29T17:12:29.375Z</time>
      </trkpt>
      <trkpt lat="51.929215" lon="8.798540">
        <ele>178.100191</ele>
        <time>2025-09-29T17:12:34.090Z</time>
      </trkpt>
      <trkpt lat="51.929245" lon="8.798119">
        <ele>179.550707</ele>
        <time>2025-09-29T17:12:42.241Z</time>
      </trkpt>
      <trkpt lat="51.929232" lon="8.797576">
        <ele>181.410594</ele>
        <time>2025-09-29T17:12:52.087Z</time>
      </trkpt>
      <trkpt lat="51.929261" lon="8.796910">
        <ele>183.695740</ele>
        <time>2025-09-29T17:13:03.147Z</time>
      </trkpt>
      <trkpt lat="51.929478" lon="8.796116">
        <ele>184.721487</ele>
        <time>2025-09-29T17:13:16.576Z</time>
      </trkpt>
      <trkpt lat="51.929721" lon="8.795088">
        <ele>185.414085</ele>
        <time>2025-09-29T17:13:32.792Z</time>
      </trkpt>
      <trkpt lat="51.929952" lon="8.794416">
        <ele>185.898085</ele>
        <time>2025-09-29T17:13:43.970Z</time>
      </trkpt>
      <trkpt lat="51.930046" lon="8.794219">
        <ele>186.054787</ele>
        <time>2025-09-29T17:13:47.632Z</time>
      </trkpt>
      <trkpt lat="51.930152" lon="8.794071">
        <ele>186.118354</ele>
        <time>2025-09-29T17:13:50.981Z</time>
      </trkpt>
      <trkpt lat="51.930692" lon="8.793774">
        <ele>186.120376</ele>
        <time>2025-09-29T17:14:04.690Z</time>
      </trkpt>
      <trkpt lat="51.931122" lon="8.793464">
        <ele>186.122045</ele>
        <time>2025-09-29T17:14:15.936Z</time>
      </trkpt>
      <trkpt lat="51.931810" lon="8.792801">
        <ele>185.762542</ele>
        <time>2025-09-29T17:14:34.270Z</time>
      </trkpt>
      <trkpt lat="51.932300" lon="8.792275">
        <ele>183.994257</ele>
        <time>2025-09-29T17:14:46.335Z</time>
      </trkpt>
      <trkpt lat="51.932405" lon="8.792129">
        <ele>183.578052</ele>
        <time>2025-09-29T17:14:48.918Z</time>
      </trkpt>
      <trkpt lat="51.932837" lon="8.791833">
        <ele>182.166793</ele>
        <time>2025-09-29T17:14:57.277Z</time>
      </trkpt>
      <trkpt lat="51.933465" lon="8.791483">
        <ele>180.047012</ele>
        <time>2025-09-29T17:15:08.686Z</time>
      </trkpt>
      <trkpt lat="51.933822" lon="8.791379">
        <ele>178.711450</ele>
        <time>2025-09-29T17:15:14.166Z</time>
      </trkpt>
      <trkpt lat="51.934017" lon="8.791318">
        <ele>177.980199</ele>
        <time>2025-09-29T17:15:17.161Z</time>
      </trkpt>
      <trkpt lat="51.934035" lon="8.791311">
        <ele>177.912042</ele>
        <time>2025-09-29T17:15:17.449Z</time>
      </trkpt>
      <trkpt lat="51.934118" lon="8.791282">
        <ele>177.599413</ele>
        <time>2025-09-29T17:15:18.730Z</time>
      </trkpt>
      <trkpt lat="51.934447" lon="8.791199">
        <ele>176.373421</ele>
        <time>2025-09-29T17:15:23.976Z</time>
      </trkpt>
      <trkpt lat="51.934486" lon="8.791189">
        <ele>176.228034</ele>
        <time>2025-09-29T17:15:24.624Z</time>
      </trkpt>
      <trkpt lat="51.934510" lon="8.791183">
        <ele>176.138619</ele>
        <time>2025-09-29T17:15:25.018Z</time>
      </trkpt>
      <trkpt lat="51.934692" lon="8.791137">
        <ele>175.460381</ele>
        <time>2025-09-29T17:15:28.072Z</time>
      </trkpt>
      <trkpt lat="51.935049" lon="8.791047">
        <ele>174.130072</ele>
        <time>2025-09-29T17:15:34.430Z</time>
      </trkpt>
      <trkpt lat="51.935175" lon="8.791015">
        <ele>173.952547</ele>
        <time>2025-09-29T17:15:36.736Z</time>
      </trkpt>
      <trkpt lat="51.935362" lon="8.790965">
        <ele>173.730334</ele>
        <time>2025-09-29T17:15:40.295Z</time>
      </trkpt>
      <trkpt lat="51.935423" lon="8.790949">
        <ele>173.657883</ele>
        <time>2025-09-29T17:15:41.469Z</time>
      </trkpt>
      <trkpt lat="51.935551" lon="8.790915">
        <ele>173.505807</ele>
        <time>2025-09-29T17:15:43.970Z</time>
      </trkpt>
      <trkpt lat="51.935705" lon="8.790873">
        <ele>173.322710</ele>
        <time>2025-09-29T17:15:46.968Z</time>
      </trkpt>
      <trkpt lat="51.935823" lon="8.790842">
        <ele>173.182555</ele>
        <time>2025-09-29T17:15:49.258Z</time>
      </trkpt>
      <trkpt lat="51.935904" lon="8.790820">
        <ele>173.086261</ele>
        <time>2025-09-29T17:15:50.840Z</time>
      </trkpt>
      <trkpt lat="51.936178" lon="8.790746">
        <ele>172.760579</ele>
        <time>2025-09-29T17:15:56.233Z</time>
      </trkpt>
      <trkpt lat="51.936235" lon="8.790731">
        <ele>172.692874</ele>
        <time>2025-09-29T17:15:57.360Z</time>
      </trkpt>
      <trkpt lat="51.936412" lon="8.790683">
        <ele>172.482464</ele>
        <time>2025-09-29T17:16:00.902Z</time>
      </trkpt>
      <trkpt lat="51.936451" lon="8.790674">
        <ele>172.436277</ele>
        <time>2025-09-29T17:16:01.672Z</time>
      </trkpt>
      <trkpt lat="51.936844" lon="8.790584">
        <ele>171.976890</ele>
        <time>2025-09-29T17:16:09.467Z</time>
      </trkpt>
      <trkpt lat="51.936944" lon="8.790560">
        <ele>171.935185</ele>
        <time>2025-09-29T17:16:11.466Z</time>
      </trkpt>
      <trkpt lat="51.936997" lon="8.790548">
        <ele>171.913108</ele>
        <time>2025-09-29T17:16:12.510Z</time>
      </trkpt>
      <trkpt lat="51.937032" lon="8.790540">
        <ele>171.898525</ele>
        <time>2025-09-29T17:16:13.195Z</time>
      </trkpt>
      <trkpt lat="51.937239" lon="8.790484">
        <ele>171.811946</ele>
        <time>2025-09-29T17:16:17.306Z</time>
      </trkpt>
      <trkpt lat="51.937717" lon="8.790325">
        <ele>171.610639</ele>
        <time>2025-09-29T17:16:27.050Z</time>
      </trkpt>
      <trkpt lat="51.937957" lon="8.790250">
        <ele>171.509804</ele>
        <time>2025-09-29T17:16:32.045Z</time>
      </trkpt>
      <trkpt lat="51.938145" lon="8.790220">
        <ele>171.431869</ele>
        <time>2025-09-29T17:16:35.962Z</time>
      </trkpt>
      <trkpt lat="51.938344" lon="8.790183">
        <ele>171.349232</ele>
        <time>2025-09-29T17:16:40.132Z</time>
      </trkpt>
      <trkpt lat="51.938538" lon="8.790121">
        <ele>171.267657</ele>
        <time>2025-09-29T17:16:44.309Z</time>
      </trkpt>
      <trkpt lat="51.938684" lon="8.790077">
        <ele>171.313453</ele>
        <time>2025-09-29T17:16:47.459Z</time>
      </trkpt>
      <trkpt lat="51.938744" lon="8.790060">
        <ele>171.373211</ele>
        <time>2025-09-29T17:16:48.750Z</time>
      </trkpt>
      <trkpt lat="51.938840" lon="8.790040">
        <ele>171.468173</ele>
        <time>2025-09-29T17:16:50.813Z</time>
      </trkpt>
      <trkpt lat="51.938946" lon="8.790032">
        <ele>171.572284</ele>
        <time>2025-09-29T17:16:53.064Z</time>
      </trkpt>
      <trkpt lat="51.939281" lon="8.790162">
        <ele>171.910235</ele>
        <time>2025-09-29T17:17:00.459Z</time>
      </trkpt>
      <trkpt lat="51.939314" lon="8.790178">
        <ele>171.944028</ele>
        <time>2025-09-29T17:17:01.236Z</time>
      </trkpt>
      <trkpt lat="51.939486" lon="8.790262">
        <ele>172.120263</ele>
        <time>2025-09-29T17:17:05.253Z</time>
      </trkpt>
      <trkpt lat="51.939763" lon="8.790383">
        <ele>172.401716</ele>
        <time>2025-09-29T17:17:11.807Z</time>
      </trkpt>
      <trkpt lat="51.940065" lon="8.790522">
        <ele>172.709712</ele>
        <time>2025-09-29T17:17:18.993Z</time>
      </trkpt>
      <trkpt lat="51.940164" lon="8.790599">
        <ele>172.817432</ele>
        <time>2025-09-29T17:17:21.514Z</time>
      </trkpt>
      <trkpt lat="51.940288" lon="8.790694">
        <ele>172.951978</ele>
        <time>2025-09-29T17:17:24.706Z</time>
      </trkpt>
      <trkpt lat="51.940539" lon="8.790879">
        <ele>173.282430</ele>
        <time>2025-09-29T17:17:31.215Z</time>
      </trkpt>
      <trkpt lat="51.940691" lon="8.791000">
        <ele>173.493890</ele>
        <time>2025-09-29T17:17:35.246Z</time>
      </trkpt>
      <trkpt lat="51.940839" lon="8.791118">
        <ele>173.699847</ele>
        <time>2025-09-29T17:17:39.170Z</time>
      </trkpt>
      <trkpt lat="51.940892" lon="8.791158">
        <ele>173.772852</ele>
        <time>2025-09-29T17:17:40.568Z</time>
      </trkpt>
      <trkpt lat="51.941116" lon="8.791330">
        <ele>174.082365</ele>
        <time>2025-09-29T17:17:46.465Z</time>
      </trkpt>
      <trkpt lat="51.941261" lon="8.791428">
        <ele>174.278545</ele>
        <time>2025-09-29T17:17:50.182Z</time>
      </trkpt>
      <trkpt lat="51.941326" lon="8.791457">
        <ele>174.362738</ele>
        <time>2025-09-29T17:17:51.743Z</time>
      </trkpt>
      <trkpt lat="51.941657" lon="8.791483">
        <ele>174.776607</ele>
        <time>2025-09-29T17:17:59.283Z</time>
      </trkpt>
      <trkpt lat="51.941711" lon="8.791442">
        <ele>174.851069</ele>
        <time>2025-09-29T17:18:00.586Z</time>
      </trkpt>
      <trkpt lat="51.941778" lon="8.791391">
        <ele>174.943500</ele>
        <time>2025-09-29T17:18:02.198Z</time>
      </trkpt>
      <trkpt lat="51.941807" lon="8.791355">
        <ele>174.989106</ele>
        <time>2025-09-29T17:18:02.966Z</time>
      </trkpt>
      <trkpt lat="51.942123" lon="8.790802">
        <ele>174.052702</ele>
        <time>2025-09-29T17:18:12.157Z</time>
      </trkpt>
      <trkpt lat="51.942560" lon="8.790189">
        <ele>171.359687</ele>
        <time>2025-09-29T17:18:21.420Z</time>
      </trkpt>
      <trkpt lat="51.942887" lon="8.789965">
        <ele>169.705076</ele>
        <time>2025-09-29T17:18:26.639Z</time>
      </trkpt>
      <trkpt lat="51.943339" lon="8.789736">
        <ele>167.497754</ele>
        <time>2025-09-29T17:18:33.415Z</time>
      </trkpt>
      <trkpt lat="51.943421" lon="8.789660">
        <ele>167.057532</ele>
        <time>2025-09-29T17:18:34.754Z</time>
      </trkpt>
      <trkpt lat="51.943558" lon="8.789397">
        <ele>165.704379</ele>
        <time>2025-09-29T17:18:37.736Z</time>
      </trkpt>
      <trkpt lat="51.943667" lon="8.789303">
        <ele>164.866262</ele>
        <time>2025-09-29T17:18:39.454Z</time>
      </trkpt>
      <trkpt lat="51.943745" lon="8.789277">
        <ele>164.325624</ele>
        <time>2025-09-29T17:18:40.570Z</time>
      </trkpt>
      <trkpt lat="51.943949" lon="8.789328">
        <ele>162.924235</ele>
        <time>2025-09-29T17:18:43.463Z</time>
      </trkpt>
      <trkpt lat="51.944219" lon="8.789381">
        <ele>161.077724</ele>
        <time>2025-09-29T17:18:47.324Z</time>
      </trkpt>
      <trkpt lat="51.944827" lon="8.789169">
        <ele>156.855489</ele>
        <time>2025-09-29T17:18:56.382Z</time>
      </trkpt>
      <trkpt lat="51.945083" lon="8.789231">
        <ele>155.098140</ele>
        <time>2025-09-29T17:19:00.188Z</time>
      </trkpt>
      <trkpt lat="51.945168" lon="8.789304">
        <ele>154.482674</ele>
        <time>2025-09-29T17:19:01.599Z</time>
      </trkpt>
      <trkpt lat="51.945489" lon="8.789681">
        <ele>152.277351</ele>
        <time>2025-09-29T17:19:07.444Z</time>
      </trkpt>
      <trkpt lat="51.945548" lon="8.789753">
        <ele>151.866497</ele>
        <time>2025-09-29T17:19:08.534Z</time>
      </trkpt>
      <trkpt lat="51.945751" lon="8.790023">
        <ele>150.405682</ele>
        <time>2025-09-29T17:19:12.421Z</time>
      </trkpt>
      <trkpt lat="51.945975" lon="8.790298">
        <ele>148.842438</ele>
        <time>2025-09-29T17:19:16.617Z</time>
      </trkpt>
      <trkpt lat="51.946118" lon="8.790398">
        <ele>147.975870</ele>
        <time>2025-09-29T17:19:18.934Z</time>
      </trkpt>
      <trkpt lat="51.946346" lon="8.790487">
        <ele>146.670853</ele>
        <time>2025-09-29T17:19:22.440Z</time>
      </trkpt>
      <trkpt lat="51.946511" lon="8.790551">
        <ele>145.726759</ele>
        <time>2025-09-29T17:19:24.956Z</time>
      </trkpt>
      <trkpt lat="51.946751" lon="8.790629">
        <ele>144.446875</ele>
        <time>2025-09-29T17:19:28.575Z</time>
      </trkpt>
      <trkpt lat="51.946859" lon="8.790659">
        <ele>144.016721</ele>
        <time>2025-09-29T17:19:30.208Z</time>
      </trkpt>
      <trkpt lat="51.947388" lon="8.790817">
        <ele>141.905082</ele>
        <time>2025-09-29T17:19:38.372Z</time>
      </trkpt>
      <trkpt lat="51.947738" lon="8.791002">
        <ele>140.459974</ele>
        <time>2025-09-29T17:19:44.178Z</time>
      </trkpt>
      <trkpt lat="51.947800" lon="8.791023">
        <ele>140.211327</ele>
        <time>2025-09-29T17:19:45.191Z</time>
      </trkpt>
      <trkpt lat="51.948407" lon="8.791668">
        <ele>137.496189</ele>
        <time>2025-09-29T17:19:57.175Z</time>
      </trkpt>
      <trkpt lat="51.948667" lon="8.791955">
        <ele>137.010423</ele>
        <time>2025-09-29T17:20:02.563Z</time>
      </trkpt>
      <trkpt lat="51.949006" lon="8.792196">
        <ele>136.438702</ele>
        <time>2025-09-29T17:20:09.271Z</time>
      </trkpt>
      <trkpt lat="51.949242" lon="8.792266">
        <ele>136.068110</ele>
        <time>2025-09-29T17:20:13.751Z</time>
      </trkpt>
      <trkpt lat="51.949360" lon="8.792679">
        <ele>135.634703</ele>
        <time>2025-09-29T17:20:19.083Z</time>
      </trkpt>
      <trkpt lat="51.949392" lon="8.792795">
        <ele>135.513703</ele>
        <time>2025-09-29T17:20:20.598Z</time>
      </trkpt>
      <trkpt lat="51.949445" lon="8.792761">
        <ele>135.425667</ele>
        <time>2025-09-29T17:20:21.704Z</time>
      </trkpt>
      <trkpt lat="51.949496" lon="8.792947">
        <ele>135.231846</ele>
        <time>2025-09-29T17:20:24.157Z</time>
      </trkpt>
      <trkpt lat="51.950258" lon="8.792841">
        <ele>134.461482</ele>
        <time>2025-09-29T17:20:40.013Z</time>
      </trkpt>
      <trkpt lat="51.951223" lon="8.792958">
        <ele>133.781617</ele>
        <time>2025-09-29T17:21:00.388Z</time>
      </trkpt>
      <trkpt lat="51.951543" lon="8.792965">
        <ele>133.556775</ele>
        <time>2025-09-29T17:21:06.979Z</time>
      </trkpt>
      <trkpt lat="51.951937" lon="8.792961">
        <ele>133.274755</ele>
        <time>2025-09-29T17:21:14.913Z</time>
      </trkpt>
      <trkpt lat="51.952295" lon="8.792768">
        <ele>133.004426</ele>
        <time>2025-09-29T17:21:22.521Z</time>
      </trkpt>
      <trkpt lat="51.952488" lon="8.792681">
        <ele>132.860887</ele>
        <time>2025-09-29T17:21:26.613Z</time>
      </trkpt>
      <trkpt lat="51.952954" lon="8.792474">
        <ele>132.514669</ele>
        <time>2025-09-29T17:21:36.539Z</time>
      </trkpt>
      <trkpt lat="51.952936" lon="8.792329">
        <ele>132.449345</ele>
        <time>2025-09-29T17:21:38.427Z</time>
      </trkpt>
      <trkpt lat="51.952442" lon="8.790984">
        <ele>132.318769</ele>
        <time>2025-09-29T17:21:59.468Z</time>
      </trkpt>
      <trkpt lat="51.952358" lon="8.790826">
        <ele>132.331257</ele>
        <time>2025-09-29T17:22:02.421Z</time>
      </trkpt>
      <trkpt lat="51.951782" lon="8.789842">
        <ele>132.412474</ele>
        <time>2025-09-29T17:22:21.398Z</time>
      </trkpt>
      <trkpt lat="51.951544" lon="8.789435">
        <ele>132.175268</ele>
        <time>2025-09-29T17:22:28.902Z</time>
      </trkpt>
      <trkpt lat="51.951494" lon="8.789171">
        <ele>131.963038</ele>
        <time>2025-09-29T17:22:32.506Z</time>
      </trkpt>
      <trkpt lat="51.951498" lon="8.788965">
        <ele>131.804661</ele>
        <time>2025-09-29T17:22:35.137Z</time>
      </trkpt>
      <trkpt lat="51.951634" lon="8.788616">
        <ele>131.487367</ele>
        <time>2025-09-29T17:22:40.314Z</time>
      </trkpt>
      <trkpt lat="51.951827" lon="8.788389">
        <ele>131.190160</ele>
        <time>2025-09-29T17:22:44.990Z</time>
      </trkpt>
      <trkpt lat="51.951949" lon="8.788298">
        <ele>131.022747</ele>
        <time>2025-09-29T17:22:47.544Z</time>
      </trkpt>
      <trkpt lat="51.951974" lon="8.788277">
        <ele>130.987647</ele>
        <time>2025-09-29T17:22:48.075Z</time>
      </trkpt>
      <trkpt lat="51.952147" lon="8.788037">
        <ele>130.703857</ele>
        <time>2025-09-29T17:22:52.274Z</time>
      </trkpt>
      <trkpt lat="51.952619" lon="8.786858">
        <ele>129.571946</ele>
        <time>2025-09-29T17:23:07.919Z</time>
      </trkpt>
      <trkpt lat="51.952983" lon="8.785925">
        <ele>128.645339</ele>
        <time>2025-09-29T17:23:21.394Z</time>
      </trkpt>
      <trkpt lat="51.953427" lon="8.786171">
        <ele>128.006530</ele>
        <time>2025-09-29T17:23:30.748Z</time>
      </trkpt>
      <trkpt lat="51.953919" lon="8.786511">
        <ele>126.965587</ele>
        <time>2025-09-29T17:23:41.234Z</time>
      </trkpt>
      <trkpt lat="51.954246" lon="8.786687">
        <ele>126.175079</ele>
        <time>2025-09-29T17:23:47.804Z</time>
      </trkpt>
      <trkpt lat="51.956183" lon="8.787928">
        <ele>121.942835</ele>
        <time>2025-09-29T17:24:21.871Z</time>
      </trkpt>
      <trkpt lat="51.956296" lon="8.787928">
        <ele>121.747592</ele>
        <time>2025-09-29T17:24:23.851Z</time>
      </trkpt>
      <trkpt lat="51.956489" lon="8.788022">
        <ele>121.399427</ele>
        <time>2025-09-29T17:24:27.478Z</time>
      </trkpt>
      <trkpt lat="51.956560" lon="8.788032">
        <ele>121.276291</ele>
        <time>2025-09-29T17:24:28.839Z</time>
      </trkpt>
      <trkpt lat="51.957005" lon="8.787800">
        <ele>120.534683</ele>
        <time>2025-09-29T17:24:39.807Z</time>
      </trkpt>
      <trkpt lat="51.957015" lon="8.787708">
        <ele>120.643468</ele>
        <time>2025-09-29T17:24:41.108Z</time>
      </trkpt>
      <trkpt lat="51.957343" lon="8.787061">
        <ele>121.619049</ele>
        <time>2025-09-29T17:24:53.178Z</time>
      </trkpt>
      <trkpt lat="51.957571" lon="8.786636">
        <ele>122.275198</ele>
        <time>2025-09-29T17:25:01.603Z</time>
      </trkpt>
      <trkpt lat="51.958021" lon="8.785792">
        <ele>123.574783</ele>
        <time>2025-09-29T17:25:18.148Z</time>
      </trkpt>
      <trkpt lat="51.958159" lon="8.785584">
        <ele>123.890828</ele>
        <time>2025-09-29T17:25:22.542Z</time>
      </trkpt>
      <trkpt lat="51.958212" lon="8.785549">
        <ele>123.863258</ele>
        <time>2025-09-29T17:25:23.857Z</time>
      </trkpt>
      <trkpt lat="51.958307" lon="8.785558">
        <ele>123.817407</ele>
        <time>2025-09-29T17:25:26.017Z</time>
      </trkpt>
      <trkpt lat="51.958604" lon="8.785691">
        <ele>123.668958</ele>
        <time>2025-09-29T17:25:32.783Z</time>
      </trkpt>
      <trkpt lat="51.960889" lon="8.786839">
        <ele>122.367402</ele>
        <time>2025-09-29T17:26:17.736Z</time>
      </trkpt>
      <trkpt lat="51.962436" lon="8.788725">
        <ele>121.743879</ele>
        <time>2025-09-29T17:26:59.854Z</time>
      </trkpt>
      <trkpt lat="51.962652" lon="8.788922">
        <ele>121.708688</ele>
        <time>2025-09-29T17:27:04.844Z</time>
      </trkpt>
      <trkpt lat="51.963635" lon="8.789280">
        <ele>120.459704</ele>
        <time>2025-09-29T17:27:23.457Z</time>
      </trkpt>
      <trkpt lat="51.964183" lon="8.789371">
        <ele>119.463248</ele>
        <time>2025-09-29T17:27:32.918Z</time>
      </trkpt>
      <trkpt lat="51.964543" lon="8.789368">
        <ele>118.812034</ele>
        <time>2025-09-29T17:27:39.184Z</time>
      </trkpt>
      <trkpt lat="51.964852" lon="8.789282">
        <ele>118.310799</ele>
        <time>2025-09-29T17:27:44.760Z</time>
      </trkpt>
      <trkpt lat="51.965036" lon="8.789153">
        <ele>118.096279</ele>
        <time>2025-09-29T17:27:48.352Z</time>
      </trkpt>
      <trkpt lat="51.965320" lon="8.789089">
        <ele>117.789403</ele>
        <time>2025-09-29T17:27:53.532Z</time>
      </trkpt>
      <trkpt lat="51.965807" lon="8.789176">
        <ele>117.265028</ele>
        <time>2025-09-29T17:28:02.559Z</time>
      </trkpt>
      <trkpt lat="51.966291" lon="8.789381">
        <ele>116.729663</ele>
        <time>2025-09-29T17:28:12.714Z</time>
      </trkpt>
      <trkpt lat="51.966889" lon="8.789445">
        <ele>116.712434</ele>
        <time>2025-09-29T17:28:25.268Z</time>
      </trkpt>
      <trkpt lat="51.967122" lon="8.789281">
        <ele>116.872383</ele>
        <time>2025-09-29T17:28:30.693Z</time>
      </trkpt>
      <trkpt lat="51.967163" lon="8.789252">
        <ele>116.900550</ele>
        <time>2025-09-29T17:28:31.706Z</time>
      </trkpt>
      <trkpt lat="51.967380" lon="8.789942">
        <ele>117.201155</ele>
        <time>2025-09-29T17:28:42.271Z</time>
      </trkpt>
      <trkpt lat="51.967472" lon="8.790410">
        <ele>117.391772</ele>
        <time>2025-09-29T17:28:49.115Z</time>
      </trkpt>
      <trkpt lat="51.967511" lon="8.790804">
        <ele>117.546616</ele>
        <time>2025-09-29T17:28:54.686Z</time>
      </trkpt>
      <trkpt lat="51.967557" lon="8.790804">
        <ele>117.575587</ele>
        <time>2025-09-29T17:28:56.212Z</time>
      </trkpt>
      <trkpt lat="51.968597" lon="8.791944">
        <ele>119.137345</ele>
        <time>2025-09-29T17:29:38.654Z</time>
      </trkpt>
      <trkpt lat="51.968990" lon="8.792154">
        <ele>119.665236</ele>
        <time>2025-09-29T17:29:52.600Z</time>
      </trkpt>
      <trkpt lat="51.969230" lon="8.792332">
        <ele>119.913069</ele>
        <time>2025-09-29T17:30:01.549Z</time>
      </trkpt>
      <trkpt lat="51.969587" lon="8.792716">
        <ele>119.937929</ele>
        <time>2025-09-29T17:30:16.165Z</time>
      </trkpt>
      <trkpt lat="51.969788" lon="8.792808">
        <ele>119.950052</ele>
        <time>2025-09-29T17:30:23.349Z</time>
      </trkpt>
      <trkpt lat="51.970352" lon="8.792928">
        <ele>119.983071</ele>
        <time>2025-09-29T17:30:43.060Z</time>
      </trkpt>
      <trkpt lat="51.970929" lon="8.793142">
        <ele>119.986463</ele>
        <time>2025-09-29T17:31:03.348Z</time>
      </trkpt>
      <trkpt lat="51.971248" lon="8.793136">
        <ele>119.867977</ele>
        <time>2025-09-29T17:31:14.312Z</time>
      </trkpt>
      <trkpt lat="51.971562" lon="8.793047">
        <ele>119.749592</ele>
        <time>2025-09-29T17:31:25.353Z</time>
      </trkpt>
      <trkpt lat="51.972616" lon="8.792538">
        <ele>119.344147</ele>
        <time>2025-09-29T17:32:03.398Z</time>
      </trkpt>
      <trkpt lat="51.972882" lon="8.792310">
        <ele>119.314571</ele>
        <time>2025-09-29T17:32:13.826Z</time>
      </trkpt>
      <trkpt lat="51.973148" lon="8.792029">
        <ele>119.283366</ele>
        <time>2025-09-29T17:32:24.828Z</time>
      </trkpt>
      <trkpt lat="51.973504" lon="8.791841">
        <ele>119.246557</ele>
        <time>2025-09-29T17:32:37.787Z</time>
      </trkpt>
      <trkpt lat="51.973877" lon="8.791700">
        <ele>119.208901</ele>
        <time>2025-09-29T17:32:51.025Z</time>
      </trkpt>
      <trkpt lat="51.974027" lon="8.791626">
        <ele>119.193487</ele>
        <time>2025-09-29T17:32:54.299Z</time>
      </trkpt>
      <trkpt lat="51.974919" lon="8.791435">
        <ele>119.386112</ele>
        <time>2025-09-29T17:33:14.403Z</time>
      </trkpt>
      <trkpt lat="51.975094" lon="8.790772">
        <ele>119.536282</ele>
        <time>2025-09-29T17:33:24.486Z</time>
      </trkpt>
      <trkpt lat="51.975337" lon="8.790426">
        <ele>119.645525</ele>
        <time>2025-09-29T17:33:31.572Z</time>
      </trkpt>
      <trkpt lat="51.975535" lon="8.790279">
        <ele>119.719110</ele>
        <time>2025-09-29T17:33:36.155Z</time>
      </trkpt>
      <trkpt lat="51.975809" lon="8.790154">
        <ele>119.522981</ele>
        <time>2025-09-29T17:33:41.839Z</time>
      </trkpt>
      <trkpt lat="51.975908" lon="8.790236">
        <ele>119.279271</ele>
        <time>2025-09-29T17:33:43.937Z</time>
      </trkpt>
      <trkpt lat="51.976014" lon="8.790268">
        <ele>119.042849</ele>
        <time>2025-09-29T17:33:45.874Z</time>
      </trkpt>
      <trkpt lat="51.976140" lon="8.790250">
        <ele>118.765489</ele>
        <time>2025-09-29T17:33:48.069Z</time>
      </trkpt>
      <trkpt lat="51.977139" lon="8.789499">
        <ele>116.351415</ele>
        <time>2025-09-29T17:34:06.133Z</time>
      </trkpt>
      <trkpt lat="51.977478" lon="8.789377">
        <ele>115.856424</ele>
        <time>2025-09-29T17:34:11.990Z</time>
      </trkpt>
      <trkpt lat="51.977638" lon="8.789416">
        <ele>115.891908</ele>
        <time>2025-09-29T17:34:14.933Z</time>
      </trkpt>
      <trkpt lat="51.977739" lon="8.789554">
        <ele>115.920860</ele>
        <time>2025-09-29T17:34:17.481Z</time>
      </trkpt>
      <trkpt lat="51.977926" lon="8.790036">
        <ele>115.997814</ele>
        <time>2025-09-29T17:34:24.771Z</time>
      </trkpt>
      <trkpt lat="51.978025" lon="8.790207">
        <ele>116.029517</ele>
        <time>2025-09-29T17:34:27.970Z</time>
      </trkpt>
      <trkpt lat="51.978047" lon="8.790154">
        <ele>116.038151</ele>
        <time>2025-09-29T17:34:28.860Z</time>
      </trkpt>
      <trkpt lat="51.978127" lon="8.790025">
        <ele>116.062880</ele>
        <time>2025-09-29T17:34:31.396Z</time>
      </trkpt>
      <trkpt lat="51.978300" lon="8.789883">
        <ele>116.105395</ele>
        <time>2025-09-29T17:34:35.810Z</time>
      </trkpt>
      <trkpt lat="51.978946" lon="8.789563">
        <ele>116.251102</ele>
        <time>2025-09-29T17:34:51.525Z</time>
      </trkpt>
      <trkpt lat="51.979211" lon="8.789407">
        <ele>116.307351</ele>
        <time>2025-09-29T17:34:58.130Z</time>
      </trkpt>
      <trkpt lat="51.979922" lon="8.788848">
        <ele>116.464990</ele>
        <time>2025-09-29T17:35:15.571Z</time>
      </trkpt>
      <trkpt lat="51.980006" lon="8.788819">
        <ele>116.482127</ele>
        <time>2025-09-29T17:35:17.262Z</time>
      </trkpt>
      <trkpt lat="51.980217" lon="8.788638">
        <ele>116.529747</ele>
        <time>2025-09-29T17:35:21.895Z</time>
      </trkpt>
      <trkpt lat="51.981660" lon="8.786894">
        <ele>114.124031</ele>
        <time>2025-09-29T17:35:53.558Z</time>
      </trkpt>
      <trkpt lat="51.981896" lon="8.786715">
        <ele>113.701937</ele>
        <time>2025-09-29T17:35:58.419Z</time>
      </trkpt>
      <trkpt lat="51.982581" lon="8.786382">
        <ele>114.481700</ele>
        <time>2025-09-29T17:36:13.203Z</time>
      </trkpt>
      <trkpt lat="51.983274" lon="8.785956">
        <ele>115.344870</ele>
        <time>2025-09-29T17:36:30.437Z</time>
      </trkpt>
      <trkpt lat="51.983754" lon="8.785721">
        <ele>116.068127</ele>
        <time>2025-09-29T17:36:42.607Z</time>
      </trkpt>
      <trkpt lat="51.984167" lon="8.785596">
        <ele>116.976390</ele>
        <time>2025-09-29T17:36:52.863Z</time>
      </trkpt>
      <trkpt lat="51.984915" lon="8.785051">
        <ele>118.748877</ele>
        <time>2025-09-29T17:37:12.306Z</time>
      </trkpt>
      <trkpt lat="51.985024" lon="8.784922">
        <ele>119.040482</ele>
        <time>2025-09-29T17:37:15.371Z</time>
      </trkpt>
      <trkpt lat="51.985362" lon="8.784627">
        <ele>119.724825</ele>
        <time>2025-09-29T17:37:23.989Z</time>
      </trkpt>
      <trkpt lat="51.985324" lon="8.784492">
        <ele>119.789136</ele>
        <time>2025-09-29T17:37:26.039Z</time>
      </trkpt>
      <trkpt lat="51.985785" lon="8.784077">
        <ele>120.159964</ele>
        <time>2025-09-29T17:37:37.697Z</time>
      </trkpt>
      <trkpt lat="51.985916" lon="8.783873">
        <ele>120.287658</ele>
        <time>2025-09-29T17:37:41.675Z</time>
      </trkpt>
      <trkpt lat="51.986048" lon="8.783173">
        <ele>120.604841</ele>
        <time>2025-09-29T17:37:51.570Z</time>
      </trkpt>
      <trkpt lat="51.986305" lon="8.782618">
        <ele>120.905691</ele>
        <time>2025-09-29T17:38:00.993Z</time>
      </trkpt>
      <trkpt lat="51.986639" lon="8.781784">
        <ele>120.854775</ele>
        <time>2025-09-29T17:38:14.541Z</time>
      </trkpt>
      <trkpt lat="51.987095" lon="8.780139">
        <ele>120.732174</ele>
        <time>2025-09-29T17:38:37.548Z</time>
      </trkpt>
      <trkpt lat="51.987292" lon="8.779596">
        <ele>119.989879</ele>
        <time>2025-09-29T17:38:44.928Z</time>
      </trkpt>
      <trkpt lat="51.987702" lon="8.779916">
        <ele>118.852151</ele>
        <time>2025-09-29T17:38:53.008Z</time>
      </trkpt>
      <trkpt lat="51.987887" lon="8.780032">
        <ele>118.356161</ele>
        <time>2025-09-29T17:38:56.352Z</time>
      </trkpt>
      <trkpt lat="51.988199" lon="8.780485">
        <ele>117.309398</ele>
        <time>2025-09-29T17:39:03.186Z</time>
      </trkpt>
      <trkpt lat="51.988340" lon="8.780392">
        <ele>116.928771</ele>
        <time>2025-09-29T17:39:05.633Z</time>
      </trkpt>
      <trkpt lat="51.988966" lon="8.780023">
        <ele>114.540690</ele>
        <time>2025-09-29T17:39:16.178Z</time>
      </trkpt>
      <trkpt lat="51.989028" lon="8.779982">
        <ele>114.247257</ele>
        <time>2025-09-29T17:39:17.208Z</time>
      </trkpt>
      <trkpt lat="51.989143" lon="8.779914">
        <ele>113.710802</ele>
        <time>2025-09-29T17:39:19.105Z</time>
      </trkpt>
      <trkpt lat="51.989247" lon="8.779928">
        <ele>113.253377</ele>
        <time>2025-09-29T17:39:20.713Z</time>
      </trkpt>
      <trkpt lat="51.989633" lon="8.780130">
        <ele>111.475747</ele>
        <time>2025-09-29T17:39:26.910Z</time>
      </trkpt>
      <trkpt lat="51.990284" lon="8.780567">
        <ele>108.388046</ele>
        <time>2025-09-29T17:39:37.692Z</time>
      </trkpt>
      <trkpt lat="51.990662" lon="8.780954">
        <ele>106.643718</ele>
        <time>2025-09-29T17:39:44.483Z</time>
      </trkpt>
      <trkpt lat="51.990871" lon="8.781129">
        <ele>105.728686</ele>
        <time>2025-09-29T17:39:48.074Z</time>
      </trkpt>
      <trkpt lat="51.991723" lon="8.781700">
        <ele>102.142044</ele>
        <time>2025-09-29T17:40:02.607Z</time>
      </trkpt>
      <trkpt lat="51.992476" lon="8.782138">
        <ele>100.561161</ele>
        <time>2025-09-29T17:40:16.312Z</time>
      </trkpt>
      <trkpt lat="51.993257" lon="8.782580">
        <ele>99.476165</ele>
        <time>2025-09-29T17:40:32.645Z</time>
      </trkpt>
      <trkpt lat="51.993444" lon="8.782709">
        <ele>99.209632</ele>
        <time>2025-09-29T17:40:36.811Z</time>
      </trkpt>
      <trkpt lat="51.993560" lon="8.782836">
        <ele>99.026106</ele>
        <time>2025-09-29T17:40:39.722Z</time>
      </trkpt>
      <trkpt lat="51.993985" lon="8.782343">
        <ele>98.755678</ele>
        <time>2025-09-29T17:40:50.478Z</time>
      </trkpt>
      <trkpt lat="51.994138" lon="8.782159">
        <ele>98.667879</ele>
        <time>2025-09-29T17:40:54.384Z</time>
      </trkpt>
      <trkpt lat="51.994247" lon="8.782039">
        <ele>98.607150</ele>
        <time>2025-09-29T17:40:57.076Z</time>
      </trkpt>
      <trkpt lat="51.994401" lon="8.781869">
        <ele>98.521276</ele>
        <time>2025-09-29T17:41:00.876Z</time>
      </trkpt>
      <trkpt lat="51.994860" lon="8.781334">
        <ele>98.260722</ele>
        <time>2025-09-29T17:41:12.183Z</time>
      </trkpt>
      <trkpt lat="51.994898" lon="8.781289">
        <ele>98.239034</ele>
        <time>2025-09-29T17:41:13.119Z</time>
      </trkpt>
      <trkpt lat="51.995376" lon="8.780598">
        <ele>97.967043</ele>
        <time>2025-09-29T17:41:25.728Z</time>
      </trkpt>
      <trkpt lat="51.995399" lon="8.780564">
        <ele>97.954302</ele>
        <time>2025-09-29T17:41:26.359Z</time>
      </trkpt>
      <trkpt lat="51.995942" lon="8.779689">
        <ele>97.640933</ele>
        <time>2025-09-29T17:41:42.031Z</time>
      </trkpt>
      <trkpt lat="51.995977" lon="8.779632">
        <ele>97.620628</ele>
        <time>2025-09-29T17:41:43.073Z</time>
      </trkpt>
      <trkpt lat="51.996577" lon="8.778652">
        <ele>97.196474</ele>
        <time>2025-09-29T17:42:00.737Z</time>
      </trkpt>
      <trkpt lat="51.996674" lon="8.778497">
        <ele>97.111098</ele>
        <time>2025-09-29T17:42:03.552Z</time>
      </trkpt>
      <trkpt lat="51.996767" lon="8.778352">
        <ele>97.030214</ele>
        <time>2025-09-29T17:42:06.175Z</time>
      </trkpt>
      <trkpt lat="51.997158" lon="8.777503">
        <ele>96.620648</ele>
        <time>2025-09-29T17:42:19.074Z</time>
      </trkpt>
      <trkpt lat="51.997273" lon="8.777639">
        <ele>96.531396</ele>
        <time>2025-09-29T17:42:22.220Z</time>
      </trkpt>
      <trkpt lat="51.997386" lon="8.777722">
        <ele>96.453585</ele>
        <time>2025-09-29T17:42:24.967Z</time>
      </trkpt>
      <trkpt lat="51.997519" lon="8.777820">
        <ele>96.361953</ele>
        <time>2025-09-29T17:42:27.816Z</time>
      </trkpt>
      <trkpt lat="51.997641" lon="8.777924">
        <ele>96.263346</ele>
        <time>2025-09-29T17:42:30.488Z</time>
      </trkpt>
      <trkpt lat="51.997704" lon="8.777964">
        <ele>96.170151</ele>
        <time>2025-09-29T17:42:31.784Z</time>
      </trkpt>
      <trkpt lat="51.997805" lon="8.777519">
        <ele>95.767834</ele>
        <time>2025-09-29T17:42:41.628Z</time>
      </trkpt>
      <trkpt lat="51.997835" lon="8.777215">
        <ele>95.506666</ele>
        <time>2025-09-29T17:42:47.945Z</time>
      </trkpt>
      <trkpt lat="51.997895" lon="8.776936">
        <ele>95.255975</ele>
        <time>2025-09-29T17:42:53.953Z</time>
      </trkpt>
      <trkpt lat="51.997980" lon="8.776732">
        <ele>95.047024</ele>
        <time>2025-09-29T17:42:58.928Z</time>
      </trkpt>
      <trkpt lat="51.998113" lon="8.776539">
        <ele>94.801299</ele>
        <time>2025-09-29T17:43:04.755Z</time>
      </trkpt>
      <trkpt lat="51.998317" lon="8.776389">
        <ele>94.492774</ele>
        <time>2025-09-29T17:43:12.126Z</time>
      </trkpt>
      <trkpt lat="51.998575" lon="8.776293">
        <ele>94.128102</ele>
        <time>2025-09-29T17:43:20.659Z</time>
      </trkpt>
      <trkpt lat="51.999133" lon="8.776285">
        <ele>93.510377</ele>
        <time>2025-09-29T17:43:38.340Z</time>
      </trkpt>
      <trkpt lat="51.999397" lon="8.776371">
        <ele>93.264442</ele>
        <time>2025-09-29T17:43:46.919Z</time>
      </trkpt>
      <trkpt lat="51.999642" lon="8.776467">
        <ele>93.034243</ele>
        <time>2025-09-29T17:43:55.103Z</time>
      </trkpt>
      <trkpt lat="51.999879" lon="8.776639">
        <ele>92.797146</ele>
        <time>2025-09-29T17:44:03.825Z</time>
      </trkpt>
      <trkpt lat="52.000124" lon="8.776896">
        <ele>92.530757</ele>
        <time>2025-09-29T17:44:13.888Z</time>
      </trkpt>
      <trkpt lat="52.000282" lon="8.777004">
        <ele>92.374184</ele>
        <time>2025-09-29T17:44:19.834Z</time>
      </trkpt>
      <trkpt lat="52.000441" lon="8.777068">
        <ele>92.224564</ele>
        <time>2025-09-29T17:44:25.482Z</time>
      </trkpt>
      <trkpt lat="52.000606" lon="8.777036">
        <ele>92.220562</ele>
        <time>2025-09-29T17:44:31.198Z</time>
      </trkpt>
      <trkpt lat="52.001471" lon="8.776285">
        <ele>92.764768</ele>
        <time>2025-09-29T17:45:04.644Z</time>
      </trkpt>
      <trkpt lat="52.001696" lon="8.776049">
        <ele>92.913376</ele>
        <time>2025-09-29T17:45:13.788Z</time>
      </trkpt>
      <trkpt lat="52.001927" lon="8.775748">
        <ele>93.077690</ele>
        <time>2025-09-29T17:45:23.955Z</time>
      </trkpt>
      <trkpt lat="52.002165" lon="8.775330">
        <ele>93.033106</ele>
        <time>2025-09-29T17:45:36.054Z</time>
      </trkpt>
      <trkpt lat="52.002376" lon="8.774847">
        <ele>92.793642</ele>
        <time>2025-09-29T17:45:48.675Z</time>
      </trkpt>
      <trkpt lat="52.002817" lon="8.773968">
        <ele>92.335164</ele>
        <time>2025-09-29T17:46:12.575Z</time>
      </trkpt>
      <trkpt lat="52.002931" lon="8.773667">
        <ele>92.192275</ele>
        <time>2025-09-29T17:46:19.726Z</time>
      </trkpt>
      <trkpt lat="52.003147" lon="8.773058">
        <ele>91.877187</ele>
        <time>2025-09-29T17:46:33.931Z</time>
      </trkpt>
      <trkpt lat="52.003182" lon="8.772768">
        <ele>91.707308</ele>
        <time>2025-09-29T17:46:39.938Z</time>
      </trkpt>
      <trkpt lat="52.003279" lon="8.772448">
        <ele>91.502266</ele>
        <time>2025-09-29T17:46:47.236Z</time>
      </trkpt>
      <trkpt lat="52.003189" lon="8.772369">
        <ele>91.406741</ele>
        <time>2025-09-29T17:46:50.684Z</time>
      </trkpt>
      <trkpt lat="52.003050" lon="8.772154">
        <ele>91.227516</ele>
        <time>2025-09-29T17:46:57.100Z</time>
      </trkpt>
      <trkpt lat="52.002924" lon="8.771886">
        <ele>91.033667</ele>
        <time>2025-09-29T17:47:04.098Z</time>
      </trkpt>
      <trkpt lat="52.002838" lon="8.771607">
        <ele>90.854302</ele>
        <time>2025-09-29T17:47:10.634Z</time>
      </trkpt>
      <trkpt lat="52.002858" lon="8.771382">
        <ele>90.723619</ele>
        <time>2025-09-29T17:47:15.449Z</time>
      </trkpt>
      <trkpt lat="52.002951" lon="8.771124">
        <ele>90.551753</ele>
        <time>2025-09-29T17:47:21.801Z</time>
      </trkpt>
      <trkpt lat="52.003294" lon="8.770459">
        <ele>90.049672</ele>
        <time>2025-09-29T17:47:40.308Z</time>
      </trkpt>
      <trkpt lat="52.003502" lon="8.769807">
        <ele>89.621825</ele>
        <time>2025-09-29T17:47:55.909Z</time>
      </trkpt>
      <trkpt lat="52.003658" lon="8.769560">
        <ele>89.415653</ele>
        <time>2025-09-29T17:48:03.287Z</time>
      </trkpt>
      <trkpt lat="52.004529" lon="8.768831">
        <ele>88.463435</ele>
        <time>2025-09-29T17:48:35.739Z</time>
      </trkpt>
      <trkpt lat="52.004909" lon="8.768600">
        <ele>87.993477</ele>
        <time>2025-09-29T17:48:48.911Z</time>
      </trkpt>
      <trkpt lat="52.005731" lon="8.768174">
        <ele>86.994089</ele>
        <time>2025-09-29T17:49:17.144Z</time>
      </trkpt>
      <trkpt lat="52.005804" lon="8.768066">
        <ele>86.879723</ele>
        <time>2025-09-29T17:49:20.453Z</time>
      </trkpt>
      <trkpt lat="52.005903" lon="8.767815">
        <ele>86.667170</ele>
        <time>2025-09-29T17:49:26.739Z</time>
      </trkpt>
      <trkpt lat="52.006167" lon="8.767144">
        <ele>86.697916</ele>
        <time>2025-09-29T17:49:43.739Z</time>
      </trkpt>
      <trkpt lat="52.006279" lon="8.766790">
        <ele>86.821564</ele>
        <time>2025-09-29T17:49:52.205Z</time>
      </trkpt>
      <trkpt lat="52.006431" lon="8.765963">
        <ele>87.089683</ele>
        <time>2025-09-29T17:50:10.371Z</time>
      </trkpt>
      <trkpt lat="52.006550" lon="8.765663">
        <ele>87.200553</ele>
        <time>2025-09-29T17:50:17.825Z</time>
      </trkpt>
      <trkpt lat="52.006702" lon="8.765481">
        <ele>87.295846</ele>
        <time>2025-09-29T17:50:24.206Z</time>
      </trkpt>
      <trkpt lat="52.007019" lon="8.765320">
        <ele>87.438622</ele>
        <time>2025-09-29T17:50:35.436Z</time>
      </trkpt>
      <trkpt lat="52.007396" lon="8.764912">
        <ele>87.523424</ele>
        <time>2025-09-29T17:50:50.852Z</time>
      </trkpt>
      <trkpt lat="52.007561" lon="8.764784">
        <ele>87.557654</ele>
        <time>2025-09-29T17:50:57.135Z</time>
      </trkpt>
      <trkpt lat="52.007759" lon="8.764751">
        <ele>87.594915</ele>
        <time>2025-09-29T17:51:03.991Z</time>
      </trkpt>
      <trkpt lat="52.008904" lon="8.764775">
        <ele>87.633152</ele>
        <time>2025-09-29T17:51:43.640Z</time>
      </trkpt>
      <trkpt lat="52.010124" lon="8.764631">
        <ele>87.032155</ele>
        <time>2025-09-29T17:52:25.369Z</time>
      </trkpt>
      <trkpt lat="52.010328" lon="8.764730">
        <ele>86.927549</ele>
        <time>2025-09-29T17:52:32.716Z</time>
      </trkpt>
      <trkpt lat="52.010420" lon="8.764987">
        <ele>86.958809</ele>
        <time>2025-09-29T17:52:39.040Z</time>
      </trkpt>
      <trkpt lat="52.010275" lon="8.765846">
        <ele>87.519329</ele>
        <time>2025-09-29T17:52:57.780Z</time>
      </trkpt>
      <trkpt lat="52.010473" lon="8.765942">
        <ele>87.730581</ele>
        <time>2025-09-29T17:53:04.808Z</time>
      </trkpt>
      <trkpt lat="52.010900" lon="8.765871">
        <ele>88.169415</ele>
        <time>2025-09-29T17:53:19.345Z</time>
      </trkpt>
      <trkpt lat="52.012038" lon="8.765826">
        <ele>89.818129</ele>
        <time>2025-09-29T17:53:57.698Z</time>
      </trkpt>
      <trkpt lat="52.012303" lon="8.765872">
        <ele>90.304612</ele>
        <time>2025-09-29T17:54:06.606Z</time>
      </trkpt>
      <trkpt lat="52.012395" lon="8.765889">
        <ele>90.473631</ele>
        <time>2025-09-29T17:54:09.713Z</time>
      </trkpt>
      <trkpt lat="52.012513" lon="8.765920">
        <ele>90.691825</ele>
        <time>2025-09-29T17:54:13.735Z</time>
      </trkpt>
      <trkpt lat="52.012299" lon="8.766232">
        <ele>91.216678</ele>
        <time>2025-09-29T17:54:20.485Z</time>
      </trkpt>
      <trkpt lat="52.012489" lon="8.766997">
        <ele>92.070192</ele>
        <time>2025-09-29T17:54:32.376Z</time>
      </trkpt>
      <trkpt lat="52.012823" lon="8.768732">
        <ele>93.075795</ele>
        <time>2025-09-29T17:54:57.785Z</time>
      </trkpt>
      <trkpt lat="52.012868" lon="8.768769">
        <ele>93.121123</ele>
        <time>2025-09-29T17:54:58.862Z</time>
      </trkpt>
      <trkpt lat="52.012887" lon="8.768844">
        <ele>93.165988</ele>
        <time>2025-09-29T17:54:59.920Z</time>
      </trkpt>
      <trkpt lat="52.013087" lon="8.768639">
        <ele>93.378519</ele>
        <time>2025-09-29T17:55:04.958Z</time>
      </trkpt>
      <trkpt lat="52.015678" lon="8.766831">
        <ele>93.326804</ele>
        <time>2025-09-29T17:56:03.631Z</time>
      </trkpt>
      <trkpt lat="52.015827" lon="8.766836">
        <ele>93.310781</ele>
        <time>2025-09-29T17:56:06.661Z</time>
      </trkpt>
      <trkpt lat="52.015859" lon="8.767183">
        <ele>93.287564</ele>
        <time>2025-09-29T17:56:11.055Z</time>
      </trkpt>
      <trkpt lat="52.015930" lon="8.767992">
        <ele>93.233492</ele>
        <time>2025-09-29T17:56:21.444Z</time>
      </trkpt>
      <trkpt lat="52.015970" lon="8.769118">
        <ele>93.590881</ele>
        <time>2025-09-29T17:56:36.312Z</time>
      </trkpt>
      <trkpt lat="52.015976" lon="8.770824">
        <ele>94.348991</ele>
        <time>2025-09-29T17:57:00.018Z</time>
      </trkpt>
      <trkpt lat="52.015981" lon="8.771352">
        <ele>94.570806</ele>
        <time>2025-09-29T17:57:07.326Z</time>
      </trkpt>
      <trkpt lat="52.015980" lon="8.771800">
        <ele>94.733420</ele>
        <time>2025-09-29T17:57:13.501Z</time>
      </trkpt>
      <trkpt lat="52.016376" lon="8.771791">
        <ele>94.966995</ele>
        <time>2025-09-29T17:57:22.291Z</time>
      </trkpt>
      <trkpt lat="52.017798" lon="8.772314">
        <ele>95.884053</ele>
        <time>2025-09-29T17:57:53.989Z</time>
      </trkpt>
      <trkpt lat="52.017918" lon="8.772297">
        <ele>95.971180</ele>
        <time>2025-09-29T17:57:56.629Z</time>
      </trkpt>
      <trkpt lat="52.018234" lon="8.772050">
        <ele>96.224815</ele>
        <time>2025-09-29T17:58:04.360Z</time>
      </trkpt>
      <trkpt lat="52.018055" lon="8.773021">
        <ele>96.676016</ele>
        <time>2025-09-29T17:58:18.261Z</time>
      </trkpt>
      <trkpt lat="52.018041" lon="8.773957">
        <ele>97.342601</ele>
        <time>2025-09-29T17:58:31.288Z</time>
      </trkpt>
      <trkpt lat="52.018071" lon="8.776684">
        <ele>100.032402</ele>
        <time>2025-09-29T17:59:09.985Z</time>
      </trkpt>
      <trkpt lat="52.018104" lon="8.777098">
        <ele>100.547018</ele>
        <time>2025-09-29T17:59:16.062Z</time>
      </trkpt>
      <trkpt lat="52.018194" lon="8.777604">
        <ele>101.196312</ele>
        <time>2025-09-29T17:59:23.753Z</time>
      </trkpt>
      <trkpt lat="52.018297" lon="8.777929">
        <ele>101.646955</ele>
        <time>2025-09-29T17:59:29.111Z</time>
      </trkpt>
      <trkpt lat="52.018461" lon="8.778122">
        <ele>102.052569</ele>
        <time>2025-09-29T17:59:33.910Z</time>
      </trkpt>
      <trkpt lat="52.018964" lon="8.778407">
        <ele>103.119626</ele>
        <time>2025-09-29T17:59:46.365Z</time>
      </trkpt>
      <trkpt lat="52.019114" lon="8.778595">
        <ele>103.306893</ele>
        <time>2025-09-29T17:59:50.746Z</time>
      </trkpt>
      <trkpt lat="52.019247" lon="8.778848">
        <ele>103.367299</ele>
        <time>2025-09-29T17:59:55.415Z</time>
      </trkpt>
      <trkpt lat="52.019663" lon="8.779909">
        <ele>103.595685</ele>
        <time>2025-09-29T18:00:12.362Z</time>
      </trkpt>
      <trkpt lat="52.019785" lon="8.780064">
        <ele>103.641369</ele>
        <time>2025-09-29T18:00:15.547Z</time>
      </trkpt>
      <trkpt lat="52.021061" lon="8.781125">
        <ele>103.048181</ele>
        <time>2025-09-29T18:00:43.800Z</time>
      </trkpt>
      <trkpt lat="52.021197" lon="8.781183">
        <ele>102.927513</ele>
        <time>2025-09-29T18:00:46.503Z</time>
      </trkpt>
      <trkpt lat="52.021272" lon="8.781255">
        <ele>102.852755</ele>
        <time>2025-09-29T18:00:48.159Z</time>
      </trkpt>
      <trkpt lat="52.021508" lon="8.781672">
        <ele>102.553558</ele>
        <time>2025-09-29T18:00:54.804Z</time>
      </trkpt>
      <trkpt lat="52.021984" lon="8.783039">
        <ele>102.142383</ele>
        <time>2025-09-29T18:01:13.843Z</time>
      </trkpt>
      <trkpt lat="52.021346" lon="8.783668">
        <ele>102.001190</ele>
        <time>2025-09-29T18:01:29.611Z</time>
      </trkpt>
      <trkpt lat="52.020758" lon="8.784240">
        <ele>102.079502</ele>
        <time>2025-09-29T18:01:44.514Z</time>
      </trkpt>
      <trkpt lat="52.020233" lon="8.784752">
        <ele>102.456888</ele>
        <time>2025-09-29T18:01:57.983Z</time>
      </trkpt>
      <trkpt lat="52.020203" lon="8.784831">
        <ele>102.492098</ele>
        <time>2025-09-29T18:01:59.259Z</time>
      </trkpt>
      <trkpt lat="52.019930" lon="8.785091">
        <ele>102.687132</ele>
        <time>2025-09-29T18:02:06.280Z</time>
      </trkpt>
      <trkpt lat="52.019456" lon="8.785540">
        <ele>103.025298</ele>
        <time>2025-09-29T18:02:18.518Z</time>
      </trkpt>
      <trkpt lat="52.019137" lon="8.785905">
        <ele>103.105338</ele>
        <time>2025-09-29T18:02:27.237Z</time>
      </trkpt>
      <trkpt lat="52.018942" lon="8.786060">
        <ele>103.148487</ele>
        <time>2025-09-29T18:02:32.070Z</time>
      </trkpt>
      <trkpt lat="52.018347" lon="8.786611">
        <ele>103.284613</ele>
        <time>2025-09-29T18:02:46.850Z</time>
      </trkpt>
      <trkpt lat="52.017970" lon="8.786984">
        <ele>103.372348</ele>
        <time>2025-09-29T18:02:56.011Z</time>
      </trkpt>
      <trkpt lat="52.017808" lon="8.787143">
        <ele>103.269762</ele>
        <time>2025-09-29T18:02:59.718Z</time>
      </trkpt>
      <trkpt lat="52.017642" lon="8.787300">
        <ele>103.079931</ele>
        <time>2025-09-29T18:03:03.358Z</time>
      </trkpt>
      <trkpt lat="52.017380" lon="8.787529">
        <ele>102.785903</ele>
        <time>2025-09-29T18:03:09.042Z</time>
      </trkpt>
      <trkpt lat="52.017423" lon="8.787598">
        <ele>102.726174</ele>
        <time>2025-09-29T18:03:10.186Z</time>
      </trkpt>
      <trkpt lat="52.017273" lon="8.787804">
        <ele>102.532067</ele>
        <time>2025-09-29T18:03:13.947Z</time>
      </trkpt>
      <trkpt lat="52.017257" lon="8.787905">
        <ele>102.468631</ele>
        <time>2025-09-29T18:03:15.148Z</time>
      </trkpt>
      <trkpt lat="52.016961" lon="8.788653">
        <ele>101.927724</ele>
        <time>2025-09-29T18:03:25.539Z</time>
      </trkpt>
      <trkpt lat="52.016840" lon="8.788927">
        <ele>101.722597</ele>
        <time>2025-09-29T18:03:29.463Z</time>
      </trkpt>
      <trkpt lat="52.016776" lon="8.789072">
        <ele>101.614063</ele>
        <time>2025-09-29T18:03:31.549Z</time>
      </trkpt>
      <trkpt lat="52.016389" lon="8.789927">
        <ele>101.890562</ele>
        <time>2025-09-29T18:03:44.441Z</time>
      </trkpt>
      <trkpt lat="52.016379" lon="8.789953">
        <ele>101.898767</ele>
        <time>2025-09-29T18:03:44.843Z</time>
      </trkpt>
      <trkpt lat="52.016190" lon="8.790489">
        <ele>102.064088</ele>
        <time>2025-09-29T18:03:53.252Z</time>
      </trkpt>
      <trkpt lat="52.015980" lon="8.791079">
        <ele>102.246491</ele>
        <time>2025-09-29T18:04:02.797Z</time>
      </trkpt>
      <trkpt lat="52.015266" lon="8.791873">
        <ele>103.228079</ele>
        <time>2025-09-29T18:04:22.917Z</time>
      </trkpt>
      <trkpt lat="52.015047" lon="8.792126">
        <ele>103.650136</ele>
        <time>2025-09-29T18:04:29.232Z</time>
      </trkpt>
      <trkpt lat="52.014866" lon="8.792253">
        <ele>103.959801</ele>
        <time>2025-09-29T18:04:33.836Z</time>
      </trkpt>
      <trkpt lat="52.014895" lon="8.792352">
        <ele>104.065789</ele>
        <time>2025-09-29T18:04:35.415Z</time>
      </trkpt>
      <trkpt lat="52.015127" lon="8.792728">
        <ele>104.580465</ele>
        <time>2025-09-29T18:04:42.956Z</time>
      </trkpt>
      <trkpt lat="52.015113" lon="8.792872">
        <ele>104.721391</ele>
        <time>2025-09-29T18:04:44.993Z</time>
      </trkpt>
      <trkpt lat="52.014452" lon="8.793772">
        <ele>105.423178</ele>
        <time>2025-09-29T18:05:04.111Z</time>
      </trkpt>
      <trkpt lat="52.014129" lon="8.794212">
        <ele>105.582663</ele>
        <time>2025-09-29T18:05:13.304Z</time>
      </trkpt>
      <trkpt lat="52.013894" lon="8.794971">
        <ele>105.780523</ele>
        <time>2025-09-29T18:05:24.455Z</time>
      </trkpt>
      <trkpt lat="52.013672" lon="8.795660">
        <ele>105.983227</ele>
        <time>2025-09-29T18:05:34.424Z</time>
      </trkpt>
      <trkpt lat="52.013177" lon="8.797192">
        <ele>106.519936</ele>
        <time>2025-09-29T18:05:57.712Z</time>
      </trkpt>
      <trkpt lat="52.012518" lon="8.796625">
        <ele>106.890742</ele>
        <time>2025-09-29T18:06:14.363Z</time>
      </trkpt>
      <trkpt lat="52.012176" lon="8.797716">
        <ele>107.250003</ele>
        <time>2025-09-29T18:06:31.100Z</time>
      </trkpt>
      <trkpt lat="52.012093" lon="8.797994">
        <ele>107.340668</ele>
        <time>2025-09-29T18:06:35.246Z</time>
      </trkpt>
      <trkpt lat="52.012010" lon="8.798271">
        <ele>107.431068</ele>
        <time>2025-09-29T18:06:39.334Z</time>
      </trkpt>
      <trkpt lat="52.011865" lon="8.798711">
        <ele>107.577520</ele>
        <time>2025-09-29T18:06:45.869Z</time>
      </trkpt>
      <trkpt lat="52.011821" lon="8.798865">
        <ele>107.627340</ele>
        <time>2025-09-29T18:06:48.092Z</time>
      </trkpt>
      <trkpt lat="52.011663" lon="8.799385">
        <ele>107.616478</ele>
        <time>2025-09-29T18:06:55.589Z</time>
      </trkpt>
      <trkpt lat="52.011577" lon="8.799639">
        <ele>107.589106</ele>
        <time>2025-09-29T18:06:59.351Z</time>
      </trkpt>
      <trkpt lat="52.011508" lon="8.799868">
        <ele>107.565032</ele>
        <time>2025-09-29T18:07:02.664Z</time>
      </trkpt>
      <trkpt lat="52.011308" lon="8.800508">
        <ele>107.497261</ele>
        <time>2025-09-29T18:07:11.964Z</time>
      </trkpt>
      <trkpt lat="52.011299" lon="8.800538">
        <ele>107.494109</ele>
        <time>2025-09-29T18:07:12.397Z</time>
      </trkpt>
      <trkpt lat="52.011219" lon="8.800801">
        <ele>107.466410</ele>
        <time>2025-09-29T18:07:16.134Z</time>
      </trkpt>
      <trkpt lat="52.011073" lon="8.801282">
        <ele>107.415771</ele>
        <time>2025-09-29T18:07:22.952Z</time>
      </trkpt>
      <trkpt lat="52.011040" lon="8.801391">
        <ele>107.404302</ele>
        <time>2025-09-29T18:07:24.467Z</time>
      </trkpt>
      <trkpt lat="52.010883" lon="8.801921">
        <ele>107.291408</ele>
        <time>2025-09-29T18:07:31.718Z</time>
      </trkpt>
      <trkpt lat="52.010812" lon="8.802150">
        <ele>107.228478</ele>
        <time>2025-09-29T18:07:34.893Z</time>
      </trkpt>
      <trkpt lat="52.010740" lon="8.802385">
        <ele>107.164054</ele>
        <time>2025-09-29T18:07:38.173Z</time>
      </trkpt>
      <trkpt lat="52.010591" lon="8.802883">
        <ele>107.028159</ele>
        <time>2025-09-29T18:07:45.141Z</time>
      </trkpt>
      <trkpt lat="52.010413" lon="8.803439">
        <ele>106.874349</ele>
        <time>2025-09-29T18:07:53.118Z</time>
      </trkpt>
      <trkpt lat="52.010237" lon="8.803915">
        <ele>106.738069</ele>
        <time>2025-09-29T18:08:00.057Z</time>
      </trkpt>
      <trkpt lat="52.009863" lon="8.804926">
        <ele>106.305634</ele>
        <time>2025-09-29T18:08:14.630Z</time>
      </trkpt>
      <trkpt lat="52.009780" lon="8.805152">
        <ele>106.198864</ele>
        <time>2025-09-29T18:08:17.958Z</time>
      </trkpt>
      <trkpt lat="52.009683" lon="8.805416">
        <ele>106.074125</ele>
        <time>2025-09-29T18:08:21.797Z</time>
      </trkpt>
      <trkpt lat="52.009493" lon="8.805933">
        <ele>105.829831</ele>
        <time>2025-09-29T18:08:29.191Z</time>
      </trkpt>
      <trkpt lat="52.009475" lon="8.805980">
        <ele>105.807373</ele>
        <time>2025-09-29T18:08:29.872Z</time>
      </trkpt>
      <trkpt lat="52.009350" lon="8.806320">
        <ele>105.646699</ele>
        <time>2025-09-29T18:08:34.599Z</time>
      </trkpt>
      <trkpt lat="52.009338" lon="8.806354">
        <ele>105.630798</ele>
        <time>2025-09-29T18:08:35.058Z</time>
      </trkpt>
      <trkpt lat="52.009206" lon="8.806727">
        <ele>105.445165</ele>
        <time>2025-09-29T18:08:40.101Z</time>
      </trkpt>
      <trkpt lat="52.009195" lon="8.806759">
        <ele>105.423886</ele>
        <time>2025-09-29T18:08:40.540Z</time>
      </trkpt>
      <trkpt lat="52.009083" lon="8.807074">
        <ele>105.212682</ele>
        <time>2025-09-29T18:08:44.907Z</time>
      </trkpt>
      <trkpt lat="52.008975" lon="8.807374">
        <ele>105.010904</ele>
        <time>2025-09-29T18:08:49.126Z</time>
      </trkpt>
      <trkpt lat="52.008944" lon="8.808001">
        <ele>104.645701</ele>
        <time>2025-09-29T18:08:56.753Z</time>
      </trkpt>
      <trkpt lat="52.008942" lon="8.808279">
        <ele>104.484286</ele>
        <time>2025-09-29T18:09:00.108Z</time>
      </trkpt>
      <trkpt lat="52.008911" lon="8.809428">
        <ele>103.816548</ele>
        <time>2025-09-29T18:09:13.883Z</time>
      </trkpt>
      <trkpt lat="52.008896" lon="8.810219">
        <ele>103.130578</ele>
        <time>2025-09-29T18:09:23.096Z</time>
      </trkpt>
      <trkpt lat="52.008879" lon="8.811131">
        <ele>102.320701</ele>
        <time>2025-09-29T18:09:33.299Z</time>
      </trkpt>
      <trkpt lat="52.008819" lon="8.812394">
        <ele>101.196308</ele>
        <time>2025-09-29T18:09:47.433Z</time>
      </trkpt>
      <trkpt lat="52.008792" lon="8.812701">
        <ele>100.987238</ele>
        <time>2025-09-29T18:09:50.894Z</time>
      </trkpt>
      <trkpt lat="52.007999" lon="8.821718">
        <ele>94.740489</ele>
        <time>2025-09-29T18:11:39.106Z</time>
      </trkpt>
      <trkpt lat="52.007978" lon="8.822218">
        <ele>94.257669</ele>
        <time>2025-09-29T18:11:44.667Z</time>
      </trkpt>
      <trkpt lat="52.007975" lon="8.822274">
        <ele>94.203515</ele>
        <time>2025-09-29T18:11:45.271Z</time>
      </trkpt>
      <trkpt lat="52.007962" lon="8.822428">
        <ele>94.053763</ele>
        <time>2025-09-29T18:11:47.070Z</time>
      </trkpt>
      <trkpt lat="52.007931" lon="8.822794">
        <ele>93.697836</ele>
        <time>2025-09-29T18:11:51.245Z</time>
      </trkpt>
      <trkpt lat="52.007838" lon="8.823071">
        <ele>93.393860</ele>
        <time>2025-09-29T18:11:54.845Z</time>
      </trkpt>
      <trkpt lat="52.007975" lon="8.823273">
        <ele>93.104296</ele>
        <time>2025-09-29T18:11:58.132Z</time>
      </trkpt>
      <trkpt lat="52.008392" lon="8.824243">
        <ele>92.509225</ele>
        <time>2025-09-29T18:12:11.390Z</time>
      </trkpt>
      <trkpt lat="52.008594" lon="8.824957">
        <ele>92.457497</ele>
        <time>2025-09-29T18:12:20.812Z</time>
      </trkpt>
      <trkpt lat="52.008621" lon="8.825274">
        <ele>92.436431</ele>
        <time>2025-09-29T18:12:24.923Z</time>
      </trkpt>
      <trkpt lat="52.008601" lon="8.825622">
        <ele>92.413423</ele>
        <time>2025-09-29T18:12:29.593Z</time>
      </trkpt>
      <trkpt lat="52.008548" lon="8.825864">
        <ele>92.396514</ele>
        <time>2025-09-29T18:12:33.133Z</time>
      </trkpt>
      <trkpt lat="52.008509" lon="8.826058">
        <ele>92.383080</ele>
        <time>2025-09-29T18:12:35.976Z</time>
      </trkpt>
      <trkpt lat="52.008376" lon="8.826666">
        <ele>92.675972</ele>
        <time>2025-09-29T18:12:45.094Z</time>
      </trkpt>
      <trkpt lat="52.007589" lon="8.828161">
        <ele>95.223530</ele>
        <time>2025-09-29T18:13:13.620Z</time>
      </trkpt>
      <trkpt lat="52.007475" lon="8.828418">
        <ele>95.633776</ele>
        <time>2025-09-29T18:13:18.270Z</time>
      </trkpt>
      <trkpt lat="52.007989" lon="8.828325">
        <ele>96.669623</ele>
        <time>2025-09-29T18:13:30.549Z</time>
      </trkpt>
      <trkpt lat="52.008168" lon="8.828387">
        <ele>97.020055</ele>
        <time>2025-09-29T18:13:34.858Z</time>
      </trkpt>
      <trkpt lat="52.008298" lon="8.828535">
        <ele>97.323999</ele>
        <time>2025-09-29T18:13:38.575Z</time>
      </trkpt>
      <trkpt lat="52.008607" lon="8.829089">
        <ele>98.205109</ele>
        <time>2025-09-29T18:13:49.354Z</time>
      </trkpt>
      <trkpt lat="52.008742" lon="8.829330">
        <ele>98.589153</ele>
        <time>2025-09-29T18:13:54.030Z</time>
      </trkpt>
      <trkpt lat="52.009584" lon="8.830797">
        <ele>100.319824</ele>
        <time>2025-09-29T18:14:22.217Z</time>
      </trkpt>
      <trkpt lat="52.009664" lon="8.831015">
        <ele>100.480501</ele>
        <time>2025-09-29T18:14:25.741Z</time>
      </trkpt>
      <trkpt lat="52.009702" lon="8.831270">
        <ele>100.646599</ele>
        <time>2025-09-29T18:14:29.368Z</time>
      </trkpt>
      <trkpt lat="52.009795" lon="8.832843">
        <ele>101.493159</ele>
        <time>2025-09-29T18:14:51.029Z</time>
      </trkpt>
      <trkpt lat="52.009868" lon="8.833207">
        <ele>101.559863</ele>
        <time>2025-09-29T18:14:56.208Z</time>
      </trkpt>
      <trkpt lat="52.010022" lon="8.833601">
        <ele>101.641183</ele>
        <time>2025-09-29T18:15:02.494Z</time>
      </trkpt>
      <trkpt lat="52.010906" lon="8.835864">
        <ele>101.682799</ele>
        <time>2025-09-29T18:15:37.488Z</time>
      </trkpt>
      <trkpt lat="52.011635" lon="8.837658">
        <ele>101.049612</ele>
        <time>2025-09-29T18:16:03.774Z</time>
      </trkpt>
      <trkpt lat="52.011659" lon="8.837678">
        <ele>101.027706</ele>
        <time>2025-09-29T18:16:04.297Z</time>
      </trkpt>
      <trkpt lat="52.011687" lon="8.837700">
        <ele>101.002446</ele>
        <time>2025-09-29T18:16:04.904Z</time>
      </trkpt>
      <trkpt lat="52.011674" lon="8.837794">
        <ele>100.954286</ele>
        <time>2025-09-29T18:16:06.070Z</time>
      </trkpt>
      <trkpt lat="52.011781" lon="8.838085">
        <ele>100.784842</ele>
        <time>2025-09-29T18:16:10.136Z</time>
      </trkpt>
      <trkpt lat="52.012887" lon="8.840904">
        <ele>99.200575</ele>
        <time>2025-09-29T18:16:50.608Z</time>
      </trkpt>
      <trkpt lat="52.013219" lon="8.841734">
        <ele>98.782426</ele>
        <time>2025-09-29T18:17:02.886Z</time>
      </trkpt>
      <trkpt lat="52.013637" lon="8.842762">
        <ele>98.205826</ele>
        <time>2025-09-29T18:17:17.940Z</time>
      </trkpt>
      <trkpt lat="52.013836" lon="8.843249">
        <ele>97.880854</ele>
        <time>2025-09-29T18:17:24.995Z</time>
      </trkpt>
      <trkpt lat="52.015699" lon="8.848035">
        <ele>95.006587</ele>
        <time>2025-09-29T18:18:32.485Z</time>
      </trkpt>
      <trkpt lat="52.015833" lon="8.848498">
        <ele>94.978057</ele>
        <time>2025-09-29T18:18:39.132Z</time>
      </trkpt>
      <trkpt lat="52.016073" lon="8.851276">
        <ele>94.613541</ele>
        <time>2025-09-29T18:19:16.845Z</time>
      </trkpt>
      <trkpt lat="52.016830" lon="8.851272">
        <ele>94.334727</ele>
        <time>2025-09-29T18:19:31.908Z</time>
      </trkpt>
      <trkpt lat="52.016948" lon="8.851505">
        <ele>94.266330</ele>
        <time>2025-09-29T18:19:35.376Z</time>
      </trkpt>
      <trkpt lat="52.017086" lon="8.851965">
        <ele>94.135351</ele>
        <time>2025-09-29T18:19:41.080Z</time>
      </trkpt>
      <trkpt lat="52.017178" lon="8.852191">
        <ele>94.061937</ele>
        <time>2025-09-29T18:19:44.078Z</time>
      </trkpt>
      <trkpt lat="52.017270" lon="8.852352">
        <ele>94.002413</ele>
        <time>2025-09-29T18:19:46.606Z</time>
      </trkpt>
      <trkpt lat="52.017738" lon="8.852831">
        <ele>93.758918</ele>
        <time>2025-09-29T18:19:57.525Z</time>
      </trkpt>
      <trkpt lat="52.017888" lon="8.853010">
        <ele>93.676988</ele>
        <time>2025-09-29T18:20:01.335Z</time>
      </trkpt>
      <trkpt lat="52.018005" lon="8.853211">
        <ele>93.602031</ele>
        <time>2025-09-29T18:20:04.893Z</time>
      </trkpt>
      <trkpt lat="52.018160" lon="8.853869">
        <ele>93.484427</ele>
        <time>2025-09-29T18:20:14.425Z</time>
      </trkpt>
      <trkpt lat="52.018172" lon="8.853938">
        <ele>93.524101</ele>
        <time>2025-09-29T18:20:15.424Z</time>
      </trkpt>
      <trkpt lat="52.018229" lon="8.854796">
        <ele>94.001599</ele>
        <time>2025-09-29T18:20:27.589Z</time>
      </trkpt>
      <trkpt lat="52.018226" lon="8.855081">
        <ele>94.159315</ele>
        <time>2025-09-29T18:20:31.664Z</time>
      </trkpt>
      <trkpt lat="52.018224" lon="8.855332">
        <ele>94.298207</ele>
        <time>2025-09-29T18:20:35.240Z</time>
      </trkpt>
      <trkpt lat="52.018271" lon="8.855680">
        <ele>94.495341</ele>
        <time>2025-09-29T18:20:40.215Z</time>
      </trkpt>
      <trkpt lat="52.018453" lon="8.856265">
        <ele>94.858037</ele>
        <time>2025-09-29T18:20:49.197Z</time>
      </trkpt>
      <trkpt lat="52.018710" lon="8.856889">
        <ele>94.839943</ele>
        <time>2025-09-29T18:20:59.154Z</time>
      </trkpt>
      <trkpt lat="52.018835" lon="8.857052">
        <ele>94.701498</ele>
        <time>2025-09-29T18:21:02.479Z</time>
      </trkpt>
      <trkpt lat="52.018913" lon="8.857078">
        <ele>94.632718</ele>
        <time>2025-09-29T18:21:04.089Z</time>
      </trkpt>
      <trkpt lat="52.021382" lon="8.857139">
        <ele>91.729655</ele>
        <time>2025-09-29T18:21:50.500Z</time>
      </trkpt>
      <trkpt lat="52.021522" lon="8.857245">
        <ele>91.493394</ele>
        <time>2025-09-29T18:21:53.223Z</time>
      </trkpt>
      <trkpt lat="52.021866" lon="8.857691">
        <ele>90.820225</ele>
        <time>2025-09-29T18:22:00.907Z</time>
      </trkpt>
      <trkpt lat="52.022165" lon="8.857761">
        <ele>90.473350</ele>
        <time>2025-09-29T18:22:06.364Z</time>
      </trkpt>
      <trkpt lat="52.022869" lon="8.857943">
        <ele>89.705743</ele>
        <time>2025-09-29T18:22:19.657Z</time>
      </trkpt>
      <trkpt lat="52.023118" lon="8.857834">
        <ele>89.428060</ele>
        <time>2025-09-29T18:22:28.232Z</time>
      </trkpt>
      <trkpt lat="52.023295" lon="8.857775">
        <ele>89.233497</ele>
        <time>2025-09-29T18:22:31.760Z</time>
      </trkpt>
      <trkpt lat="52.023923" lon="8.857686">
        <ele>89.010805</ele>
        <time>2025-09-29T18:22:44.701Z</time>
      </trkpt>
      <trkpt lat="52.024716" lon="8.857643">
        <ele>89.679688</ele>
        <time>2025-09-29T18:23:02.137Z</time>
      </trkpt>
      <trkpt lat="52.024728" lon="8.857641">
        <ele>89.689857</ele>
        <time>2025-09-29T18:23:02.422Z</time>
      </trkpt>
      <trkpt lat="52.025111" lon="8.857572">
        <ele>90.014710</ele>
        <time>2025-09-29T18:23:11.221Z</time>
      </trkpt>
      <trkpt lat="52.025242" lon="8.857558">
        <ele>90.125383</ele>
        <time>2025-09-29T18:23:14.269Z</time>
      </trkpt>
      <trkpt lat="52.025958" lon="8.857468">
        <ele>91.013009</ele>
        <time>2025-09-29T18:23:31.017Z</time>
      </trkpt>
      <trkpt lat="52.026086" lon="8.857528">
        <ele>91.203771</ele>
        <time>2025-09-29T18:23:34.149Z</time>
      </trkpt>
      <trkpt lat="52.026170" lon="8.857847">
        <ele>91.509494</ele>
        <time>2025-09-29T18:23:39.110Z</time>
      </trkpt>
      <trkpt lat="52.026263" lon="8.859241">
        <ele>92.744922</ele>
        <time>2025-09-29T18:23:58.869Z</time>
      </trkpt>
      <trkpt lat="52.026291" lon="8.859989">
        <ele>92.967509</ele>
        <time>2025-09-29T18:24:08.863Z</time>
      </trkpt>
      <trkpt lat="52.026258" lon="8.862304">
        <ele>93.231782</ele>
        <time>2025-09-29T18:24:38.765Z</time>
      </trkpt>
      <trkpt lat="52.026306" lon="8.862981">
        <ele>93.331953</ele>
        <time>2025-09-29T18:24:47.735Z</time>
      </trkpt>
      <trkpt lat="52.026519" lon="8.864529">
        <ele>93.568099</ele>
        <time>2025-09-29T18:25:09.113Z</time>
      </trkpt>
      <trkpt lat="52.026601" lon="8.865171">
        <ele>93.665712</ele>
        <time>2025-09-29T18:25:17.826Z</time>
      </trkpt>
      <trkpt lat="52.026592" lon="8.865806">
        <ele>93.330856</ele>
        <time>2025-09-29T18:25:25.951Z</time>
      </trkpt>
      <trkpt lat="52.026582" lon="8.866146">
        <ele>93.137290</ele>
        <time>2025-09-29T18:25:30.187Z</time>
      </trkpt>
      <trkpt lat="52.025615" lon="8.866152">
        <ele>92.243571</ele>
        <time>2025-09-29T18:25:49.405Z</time>
      </trkpt>
      <trkpt lat="52.025144" lon="8.866194">
        <ele>91.755639</ele>
        <time>2025-09-29T18:25:58.231Z</time>
      </trkpt>
      <trkpt lat="52.024903" lon="8.866225">
        <ele>91.474502</ele>
        <time>2025-09-29T18:26:02.788Z</time>
      </trkpt>
      <trkpt lat="52.024730" lon="8.866282">
        <ele>91.269226</ele>
        <time>2025-09-29T18:26:06.145Z</time>
      </trkpt>
      <trkpt lat="52.024669" lon="8.866323">
        <ele>91.192461</ele>
        <time>2025-09-29T18:26:07.406Z</time>
      </trkpt>
      <trkpt lat="52.024463" lon="8.866481">
        <ele>90.927563</ele>
        <time>2025-09-29T18:26:11.815Z</time>
      </trkpt>
      <trkpt lat="52.024308" lon="8.866666">
        <ele>90.703923</ele>
        <time>2025-09-29T18:26:15.635Z</time>
      </trkpt>
      <trkpt lat="52.024171" lon="8.866899">
        <ele>90.473314</ele>
        <time>2025-09-29T18:26:19.650Z</time>
      </trkpt>
      <trkpt lat="52.024063" lon="8.867157">
        <ele>90.250026</ele>
        <time>2025-09-29T18:26:23.598Z</time>
      </trkpt>
      <trkpt lat="52.023992" lon="8.867400">
        <ele>90.057534</ele>
        <time>2025-09-29T18:26:27.069Z</time>
      </trkpt>
      <trkpt lat="52.023730" lon="8.868635">
        <ele>90.019680</ele>
        <time>2025-09-29T18:26:44.507Z</time>
      </trkpt>
      <trkpt lat="52.023648" lon="8.869033">
        <ele>90.058425</ele>
        <time>2025-09-29T18:26:50.303Z</time>
      </trkpt>
      <trkpt lat="52.023323" lon="8.871864">
        <ele>90.495975</ele>
        <time>2025-09-29T18:27:30.458Z</time>
      </trkpt>
      <trkpt lat="52.023258" lon="8.872499">
        <ele>90.629743</ele>
        <time>2025-09-29T18:27:39.293Z</time>
      </trkpt>
      <trkpt lat="52.023209" lon="8.873318">
        <ele>90.798387</ele>
        <time>2025-09-29T18:27:50.539Z</time>
      </trkpt>
      <trkpt lat="52.023107" lon="8.875740">
        <ele>91.114889</ele>
        <time>2025-09-29T18:28:23.784Z</time>
      </trkpt>
      <trkpt lat="52.023081" lon="8.876352">
        <ele>91.232516</ele>
        <time>2025-09-29T18:28:32.134Z</time>
      </trkpt>
      <trkpt lat="52.023073" lon="8.877880">
        <ele>91.819232</ele>
        <time>2025-09-29T18:28:53.486Z</time>
      </trkpt>
      <trkpt lat="52.023077" lon="8.878018">
        <ele>91.872278</ele>
        <time>2025-09-29T18:28:55.459Z</time>
      </trkpt>
      <trkpt lat="52.023162" lon="8.879956">
        <ele>92.719296</ele>
        <time>2025-09-29T18:29:23.162Z</time>
      </trkpt>
      <trkpt lat="52.023154" lon="8.880148">
        <ele>92.816476</ele>
        <time>2025-09-29T18:29:25.925Z</time>
      </trkpt>
      <trkpt lat="52.023060" lon="8.880483">
        <ele>93.002407</ele>
        <time>2025-09-29T18:29:31.228Z</time>
      </trkpt>
      <trkpt lat="52.023238" lon="8.880755">
        <ele>93.202922</ele>
        <time>2025-09-29T18:29:36.748Z</time>
      </trkpt>
      <trkpt lat="52.023259" lon="8.880832">
        <ele>93.245454</ele>
        <time>2025-09-29T18:29:37.900Z</time>
      </trkpt>
      <trkpt lat="52.023402" lon="8.881910">
        <ele>93.774398</ele>
        <time>2025-09-29T18:29:52.924Z</time>
      </trkpt>
      <trkpt lat="52.023533" lon="8.882789">
        <ele>93.782151</ele>
        <time>2025-09-29T18:30:04.882Z</time>
      </trkpt>
      <trkpt lat="52.023871" lon="8.884728">
        <ele>93.800880</ele>
        <time>2025-09-29T18:30:30.525Z</time>
      </trkpt>
      <trkpt lat="52.023939" lon="8.885117">
        <ele>93.815419</ele>
        <time>2025-09-29T18:30:35.623Z</time>
      </trkpt>
      <trkpt lat="52.024056" lon="8.885836">
        <ele>93.842159</ele>
        <time>2025-09-29T18:30:45.268Z</time>
      </trkpt>
      <trkpt lat="52.024192" lon="8.886697">
        <ele>93.874120</ele>
        <time>2025-09-29T18:30:57.030Z</time>
      </trkpt>
      <trkpt lat="52.024234" lon="8.886966">
        <ele>93.884098</ele>
        <time>2025-09-29T18:31:00.684Z</time>
      </trkpt>
      <trkpt lat="52.024520" lon="8.888766">
        <ele>94.099498</ele>
        <time>2025-09-29T18:31:25.298Z</time>
      </trkpt>
      <trkpt lat="52.024538" lon="8.888872">
        <ele>94.115984</ele>
        <time>2025-09-29T18:31:26.733Z</time>
      </trkpt>
      <trkpt lat="52.024681" lon="8.889580">
        <ele>94.227701</ele>
        <time>2025-09-29T18:31:36.501Z</time>
      </trkpt>
      <trkpt lat="52.024748" lon="8.889883">
        <ele>94.275972</ele>
        <time>2025-09-29T18:31:40.730Z</time>
      </trkpt>
      <trkpt lat="52.024840" lon="8.890261">
        <ele>94.336914</ele>
        <time>2025-09-29T18:31:46.133Z</time>
      </trkpt>
      <trkpt lat="52.024890" lon="8.890431">
        <ele>94.403915</ele>
        <time>2025-09-29T18:31:48.648Z</time>
      </trkpt>
      <trkpt lat="52.024953" lon="8.890530">
        <ele>94.461471</ele>
        <time>2025-09-29T18:31:50.554Z</time>
      </trkpt>
      <trkpt lat="52.024920" lon="8.890585">
        <ele>94.492516</ele>
        <time>2025-09-29T18:31:51.579Z</time>
      </trkpt>
      <trkpt lat="52.024897" lon="8.890731">
        <ele>94.553421</ele>
        <time>2025-09-29T18:31:53.614Z</time>
      </trkpt>
      <trkpt lat="52.024953" lon="8.890897">
        <ele>94.629926</ele>
        <time>2025-09-29T18:31:56.153Z</time>
      </trkpt>
      <trkpt lat="52.025056" lon="8.890940">
        <ele>94.699770</ele>
        <time>2025-09-29T18:31:58.483Z</time>
      </trkpt>
      <trkpt lat="52.025034" lon="8.891098">
        <ele>94.765236</ele>
        <time>2025-09-29T18:32:00.684Z</time>
      </trkpt>
      <trkpt lat="52.025038" lon="8.891239">
        <ele>94.822278</ele>
        <time>2025-09-29T18:32:02.593Z</time>
      </trkpt>
      <trkpt lat="52.025401" lon="8.893524">
        <ele>95.700639</ele>
        <time>2025-09-29T18:32:35.061Z</time>
      </trkpt>
      <trkpt lat="52.025442" lon="8.894262">
        <ele>95.910699</ele>
        <time>2025-09-29T18:32:45.094Z</time>
      </trkpt>
      <trkpt lat="52.025444" lon="8.894354">
        <ele>95.936796</ele>
        <time>2025-09-29T18:32:46.316Z</time>
      </trkpt>
      <trkpt lat="52.025350" lon="8.895940">
        <ele>96.407822</ele>
        <time>2025-09-29T18:33:07.292Z</time>
      </trkpt>
      <trkpt lat="52.025343" lon="8.896044">
        <ele>96.453321</ele>
        <time>2025-09-29T18:33:08.672Z</time>
      </trkpt>
      <trkpt lat="52.025302" lon="8.896775">
        <ele>96.772552</ele>
        <time>2025-09-29T18:33:18.415Z</time>
      </trkpt>
      <trkpt lat="52.025236" lon="8.898211">
        <ele>97.398810</ele>
        <time>2025-09-29T18:33:38.235Z</time>
      </trkpt>
      <trkpt lat="52.025237" lon="8.898403">
        <ele>97.482314</ele>
        <time>2025-09-29T18:33:40.912Z</time>
      </trkpt>
      <trkpt lat="52.025244" lon="8.898503">
        <ele>97.526084</ele>
        <time>2025-09-29T18:33:42.309Z</time>
      </trkpt>
      <trkpt lat="52.025250" lon="8.899081">
        <ele>97.765966</ele>
        <time>2025-09-29T18:33:50.377Z</time>
      </trkpt>
      <trkpt lat="52.025188" lon="8.899581">
        <ele>97.971179</ele>
        <time>2025-09-29T18:33:57.519Z</time>
      </trkpt>
      <trkpt lat="52.025169" lon="8.899721">
        <ele>98.028861</ele>
        <time>2025-09-29T18:33:59.520Z</time>
      </trkpt>
      <trkpt lat="52.025500" lon="8.899920">
        <ele>98.259628</ele>
        <time>2025-09-29T18:34:09.387Z</time>
      </trkpt>
      <trkpt lat="52.025151" lon="8.900897">
        <ele>98.714151</ele>
        <time>2025-09-29T18:34:24.536Z</time>
      </trkpt>
      <trkpt lat="52.025137" lon="8.900943">
        <ele>98.734799</ele>
        <time>2025-09-29T18:34:25.189Z</time>
      </trkpt>
      <trkpt lat="52.025044" lon="8.901324">
        <ele>98.722581</ele>
        <time>2025-09-29T18:34:30.403Z</time>
      </trkpt>
      <trkpt lat="52.025000" lon="8.901666">
        <ele>98.614368</ele>
        <time>2025-09-29T18:34:34.763Z</time>
      </trkpt>
      <trkpt lat="52.024995" lon="8.901849">
        <ele>98.557635</ele>
        <time>2025-09-29T18:34:37.015Z</time>
      </trkpt>
      <trkpt lat="52.024991" lon="8.902010">
        <ele>98.507731</ele>
        <time>2025-09-29T18:34:38.980Z</time>
      </trkpt>
      <trkpt lat="52.024989" lon="8.902588">
        <ele>98.328714</ele>
        <time>2025-09-29T18:34:45.995Z</time>
      </trkpt>
      <trkpt lat="52.024989" lon="8.902701">
        <ele>98.293717</ele>
        <time>2025-09-29T18:34:47.360Z</time>
      </trkpt>
      <trkpt lat="52.024991" lon="8.903621">
        <ele>98.008779</ele>
        <time>2025-09-29T18:34:58.575Z</time>
      </trkpt>
      <trkpt lat="52.024995" lon="8.903859">
        <ele>97.935040</ele>
        <time>2025-09-29T18:35:01.495Z</time>
      </trkpt>
      <trkpt lat="52.025053" lon="8.905377">
        <ele>97.694953</ele>
        <time>2025-09-29T18:35:20.511Z</time>
      </trkpt>
      <trkpt lat="52.025116" lon="8.905912">
        <ele>97.616799</ele>
        <time>2025-09-29T18:35:27.474Z</time>
      </trkpt>
      <trkpt lat="52.025155" lon="8.906158">
        <ele>97.580350</ele>
        <time>2025-09-29T18:35:30.737Z</time>
      </trkpt>
      <trkpt lat="52.025204" lon="8.906257">
        <ele>97.562121</ele>
        <time>2025-09-29T18:35:32.386Z</time>
      </trkpt>
      <trkpt lat="52.025291" lon="8.906435">
        <ele>97.529505</ele>
        <time>2025-09-29T18:35:35.304Z</time>
      </trkpt>
      <trkpt lat="52.025235" lon="8.906687">
        <ele>97.491063</ele>
        <time>2025-09-29T18:35:38.774Z</time>
      </trkpt>
      <trkpt lat="52.025188" lon="8.907045">
        <ele>97.594621</ele>
        <time>2025-09-29T18:35:43.554Z</time>
      </trkpt>
      <trkpt lat="52.025203" lon="8.907453">
        <ele>97.787761</ele>
        <time>2025-09-29T18:35:49.210Z</time>
      </trkpt>
      <trkpt lat="52.025251" lon="8.907874">
        <ele>97.990086</ele>
        <time>2025-09-29T18:35:55.201Z</time>
      </trkpt>
      <trkpt lat="52.025279" lon="8.908095">
        <ele>98.096707</ele>
        <time>2025-09-29T18:35:58.396Z</time>
      </trkpt>
      <trkpt lat="52.025285" lon="8.908142">
        <ele>98.119389</ele>
        <time>2025-09-29T18:35:59.090Z</time>
      </trkpt>
      <trkpt lat="52.025326" lon="8.908456">
        <ele>98.271070</ele>
        <time>2025-09-29T18:36:03.656Z</time>
      </trkpt>
      <trkpt lat="52.025464" lon="8.909405">
        <ele>98.731860</ele>
        <time>2025-09-29T18:36:17.247Z</time>
      </trkpt>
      <trkpt lat="52.025537" lon="8.909906">
        <ele>99.067130</ele>
        <time>2025-09-29T18:36:24.457Z</time>
      </trkpt>
      <trkpt lat="52.025789" lon="8.910919">
        <ele>99.982666</ele>
        <time>2025-09-29T18:36:39.882Z</time>
      </trkpt>
      <trkpt lat="52.025797" lon="8.910952">
        <ele>100.012386</ele>
        <time>2025-09-29T18:36:40.374Z</time>
      </trkpt>
      <trkpt lat="52.025817" lon="8.911032">
        <ele>100.084739</ele>
        <time>2025-09-29T18:36:41.595Z</time>
      </trkpt>
      <trkpt lat="52.025889" lon="8.911328">
        <ele>100.351433</ele>
        <time>2025-09-29T18:36:46.074Z</time>
      </trkpt>
      <trkpt lat="52.025943" lon="8.911532">
        <ele>100.537509</ele>
        <time>2025-09-29T18:36:49.185Z</time>
      </trkpt>
      <trkpt lat="52.025984" lon="8.911688">
        <ele>100.679645</ele>
        <time>2025-09-29T18:36:51.568Z</time>
      </trkpt>
      <trkpt lat="52.026014" lon="8.911806">
        <ele>100.786624</ele>
        <time>2025-09-29T18:36:53.362Z</time>
      </trkpt>
      <trkpt lat="52.026055" lon="8.911980">
        <ele>100.942742</ele>
        <time>2025-09-29T18:36:55.973Z</time>
      </trkpt>
      <trkpt lat="52.026083" lon="8.912097">
        <ele>101.047929</ele>
        <time>2025-09-29T18:36:57.732Z</time>
      </trkpt>
      <trkpt lat="52.026159" lon="8.912418">
        <ele>101.331201</ele>
        <time>2025-09-29T18:37:02.564Z</time>
      </trkpt>
      <trkpt lat="52.026204" lon="8.912584">
        <ele>101.458794</ele>
        <time>2025-09-29T18:37:05.114Z</time>
      </trkpt>
      <trkpt lat="52.026239" lon="8.912745">
        <ele>101.578901</ele>
        <time>2025-09-29T18:37:07.513Z</time>
      </trkpt>
      <trkpt lat="52.026288" lon="8.913190">
        <ele>101.896883</ele>
        <time>2025-09-29T18:37:13.871Z</time>
      </trkpt>
      <trkpt lat="52.026284" lon="8.913298">
        <ele>101.972986</ele>
        <time>2025-09-29T18:37:15.388Z</time>
      </trkpt>
      <trkpt lat="52.026139" lon="8.914710">
        <ele>102.979915</ele>
        <time>2025-09-29T18:37:35.295Z</time>
      </trkpt>
      <trkpt lat="52.026117" lon="8.915362">
        <ele>103.389070</ele>
        <time>2025-09-29T18:37:44.390Z</time>
      </trkpt>
      <trkpt lat="52.026119" lon="8.915761">
        <ele>103.488294</ele>
        <time>2025-09-29T18:37:49.861Z</time>
      </trkpt>
      <trkpt lat="52.026141" lon="8.916139">
        <ele>103.582711</ele>
        <time>2025-09-29T18:37:55.028Z</time>
      </trkpt>
      <trkpt lat="52.026167" lon="8.916379">
        <ele>103.643311</ele>
        <time>2025-09-29T18:37:58.305Z</time>
      </trkpt>
      <trkpt lat="52.026186" lon="8.916378">
        <ele>103.650994</ele>
        <time>2025-09-29T18:37:58.696Z</time>
      </trkpt>
      <trkpt lat="52.027605" lon="8.916333">
        <ele>104.088563</ele>
        <time>2025-09-29T18:38:29.069Z</time>
      </trkpt>
      <trkpt lat="52.027993" lon="8.916320">
        <ele>104.088563</ele>
        <time>2025-09-29T18:38:37.055Z</time>
      </trkpt>
      <trkpt lat="52.027993" lon="8.916335">
        <ele>104.088563</ele>
        <time>2025-09-29T18:38:37.292Z</time>
      </trkpt>
      <trkpt lat="52.028047" lon="8.916196">
        <ele>104.088563</ele>
        <time>2025-09-29T18:38:39.908Z</time>
      </trkpt>
      <trkpt lat="52.028051" lon="8.916039">
        <ele>104.088563</ele>
        <time>2025-09-29T18:38:42.408Z</time>
      </trkpt>
    </trkseg>
  </trk>
</gpx>